<?xml version="1.0" encoding="UTF-8" standalone="no" ?>
<gpx xmlns="http://www.topografix.com/GPX/1/1" xmlns:xsi="http://www.w3.org/2001/XMLSchema-instance" xsi:schemaLocation="http://www.topografix.com/GPX/1/1 http://www.topografix.com/GPX/1/1/gpx.xsd" version="1.1" creator="VisuGPX - https://www.visugpx.com">
  <metadata>
    <name>Drigas le buffre hures moulin de saubert </name>
    <desc><![CDATA[variante du circuit des 3 hameaux avec visite au moulin de saubert]]></desc>
  </metadata>
  <trk>
    <name><![CDATA[3 hameaux et variante moulin de saubert06-JAN-13 16:08:47]]></name>
    <trkseg>
      <trkpt lat="44.25022" lon="3.40097">
        <ele>1029.23</ele>
        <time>2013-01-06T09:22:40Z</time>
      </trkpt>
      <trkpt lat="44.25027" lon="3.40119">
        <ele>1031.15</ele>
        <time>2013-01-06T09:22:55Z</time>
      </trkpt>
      <trkpt lat="44.25035" lon="3.4014">
        <ele>1030.19</ele>
        <time>2013-01-06T09:23:08Z</time>
      </trkpt>
      <trkpt lat="44.25045" lon="3.40151">
        <ele>1033.07</ele>
        <time>2013-01-06T09:23:18Z</time>
      </trkpt>
      <trkpt lat="44.25064" lon="3.40163">
        <ele>1035.48</ele>
        <time>2013-01-06T09:23:32Z</time>
      </trkpt>
      <trkpt lat="44.25084" lon="3.4018">
        <ele>1037.88</ele>
        <time>2013-01-06T09:23:48Z</time>
      </trkpt>
      <trkpt lat="44.25101" lon="3.40192">
        <ele>1039.32</ele>
        <time>2013-01-06T09:24:03Z</time>
      </trkpt>
      <trkpt lat="44.25128" lon="3.40197">
        <ele>1042.21</ele>
        <time>2013-01-06T09:24:22Z</time>
      </trkpt>
      <trkpt lat="44.2514" lon="3.40195">
        <ele>1042.69</ele>
        <time>2013-01-06T09:24:36Z</time>
      </trkpt>
      <trkpt lat="44.25144" lon="3.40193">
        <ele>1043.65</ele>
        <time>2013-01-06T09:24:55Z</time>
      </trkpt>
      <trkpt lat="44.2516" lon="3.40201">
        <ele>1044.13</ele>
        <time>2013-01-06T09:25:18Z</time>
      </trkpt>
      <trkpt lat="44.25164" lon="3.40204">
        <ele>1045.57</ele>
        <time>2013-01-06T09:25:21Z</time>
      </trkpt>
      <trkpt lat="44.25175" lon="3.40211">
        <ele>1046.53</ele>
        <time>2013-01-06T09:25:31Z</time>
      </trkpt>
      <trkpt lat="44.2519" lon="3.40225">
        <ele>1046.53</ele>
        <time>2013-01-06T09:25:45Z</time>
      </trkpt>
      <trkpt lat="44.25202" lon="3.40247">
        <ele>1046.05</ele>
        <time>2013-01-06T09:26:00Z</time>
      </trkpt>
      <trkpt lat="44.25211" lon="3.40267">
        <ele>1049.42</ele>
        <time>2013-01-06T09:26:13Z</time>
      </trkpt>
      <trkpt lat="44.25215" lon="3.40278">
        <ele>1049.9</ele>
        <time>2013-01-06T09:26:19Z</time>
      </trkpt>
      <trkpt lat="44.25228" lon="3.40299">
        <ele>1050.38</ele>
        <time>2013-01-06T09:26:34Z</time>
      </trkpt>
      <trkpt lat="44.25256" lon="3.40307">
        <ele>1052.78</ele>
        <time>2013-01-06T09:26:53Z</time>
      </trkpt>
      <trkpt lat="44.25277" lon="3.4032">
        <ele>1052.3</ele>
        <time>2013-01-06T09:27:09Z</time>
      </trkpt>
      <trkpt lat="44.25283" lon="3.40326">
        <ele>1052.78</ele>
        <time>2013-01-06T09:27:13Z</time>
      </trkpt>
      <trkpt lat="44.25295" lon="3.40337">
        <ele>1051.82</ele>
        <time>2013-01-06T09:27:23Z</time>
      </trkpt>
      <trkpt lat="44.25304" lon="3.4035">
        <ele>1049.9</ele>
        <time>2013-01-06T09:27:33Z</time>
      </trkpt>
      <trkpt lat="44.25325" lon="3.40365">
        <ele>1050.38</ele>
        <time>2013-01-06T09:27:51Z</time>
      </trkpt>
      <trkpt lat="44.25342" lon="3.40378">
        <ele>1047.49</ele>
        <time>2013-01-06T09:28:05Z</time>
      </trkpt>
      <trkpt lat="44.25357" lon="3.40395">
        <ele>1046.53</ele>
        <time>2013-01-06T09:28:19Z</time>
      </trkpt>
      <trkpt lat="44.25382" lon="3.40406">
        <ele>1044.61</ele>
        <time>2013-01-06T09:28:39Z</time>
      </trkpt>
      <trkpt lat="44.25387" lon="3.40408">
        <ele>1044.61</ele>
        <time>2013-01-06T09:28:43Z</time>
      </trkpt>
      <trkpt lat="44.2541" lon="3.4042">
        <ele>1043.17</ele>
        <time>2013-01-06T09:29:00Z</time>
      </trkpt>
      <trkpt lat="44.2542" lon="3.40423">
        <ele>1044.13</ele>
        <time>2013-01-06T09:29:08Z</time>
      </trkpt>
      <trkpt lat="44.25421" lon="3.40431">
        <ele>1045.09</ele>
        <time>2013-01-06T09:29:13Z</time>
      </trkpt>
      <trkpt lat="44.25426" lon="3.40471">
        <ele>1045.57</ele>
        <time>2013-01-06T09:29:33Z</time>
      </trkpt>
      <trkpt lat="44.25432" lon="3.40503">
        <ele>1045.09</ele>
        <time>2013-01-06T09:29:50Z</time>
      </trkpt>
      <trkpt lat="44.25453" lon="3.40544">
        <ele>1047.97</ele>
        <time>2013-01-06T09:30:11Z</time>
      </trkpt>
      <trkpt lat="44.25477" lon="3.40582">
        <ele>1050.38</ele>
        <time>2013-01-06T09:30:33Z</time>
      </trkpt>
      <trkpt lat="44.25497" lon="3.40617">
        <ele>1052.78</ele>
        <time>2013-01-06T09:30:52Z</time>
      </trkpt>
      <trkpt lat="44.25511" lon="3.40641">
        <ele>1052.78</ele>
        <time>2013-01-06T09:31:09Z</time>
      </trkpt>
      <trkpt lat="44.25526" lon="3.40665">
        <ele>1054.7</ele>
        <time>2013-01-06T09:31:28Z</time>
      </trkpt>
      <trkpt lat="44.25539" lon="3.40692">
        <ele>1056.15</ele>
        <time>2013-01-06T09:31:45Z</time>
      </trkpt>
      <trkpt lat="44.25549" lon="3.40712">
        <ele>1056.15</ele>
        <time>2013-01-06T09:31:59Z</time>
      </trkpt>
      <trkpt lat="44.2555" lon="3.40718">
        <ele>1055.67</ele>
        <time>2013-01-06T09:32:04Z</time>
      </trkpt>
      <trkpt lat="44.25554" lon="3.40722">
        <ele>1056.63</ele>
        <time>2013-01-06T09:32:16Z</time>
      </trkpt>
      <trkpt lat="44.25555" lon="3.4072">
        <ele>1057.11</ele>
        <time>2013-01-06T09:32:35Z</time>
      </trkpt>
      <trkpt lat="44.25556" lon="3.40724">
        <ele>1056.15</ele>
        <time>2013-01-06T09:32:37Z</time>
      </trkpt>
      <trkpt lat="44.25571" lon="3.40746">
        <ele>1055.67</ele>
        <time>2013-01-06T09:32:54Z</time>
      </trkpt>
      <trkpt lat="44.25584" lon="3.40765">
        <ele>1056.15</ele>
        <time>2013-01-06T09:33:11Z</time>
      </trkpt>
      <trkpt lat="44.2559" lon="3.40772">
        <ele>1055.67</ele>
        <time>2013-01-06T09:33:28Z</time>
      </trkpt>
      <trkpt lat="44.25609" lon="3.40796">
        <ele>1055.18</ele>
        <time>2013-01-06T09:33:47Z</time>
      </trkpt>
      <trkpt lat="44.25629" lon="3.40822">
        <ele>1056.15</ele>
        <time>2013-01-06T09:34:07Z</time>
      </trkpt>
      <trkpt lat="44.25649" lon="3.40846">
        <ele>1056.15</ele>
        <time>2013-01-06T09:34:26Z</time>
      </trkpt>
      <trkpt lat="44.25672" lon="3.40871">
        <ele>1056.15</ele>
        <time>2013-01-06T09:34:48Z</time>
      </trkpt>
      <trkpt lat="44.25686" lon="3.40889">
        <ele>1057.11</ele>
        <time>2013-01-06T09:35:05Z</time>
      </trkpt>
      <trkpt lat="44.25697" lon="3.40902">
        <ele>1058.07</ele>
        <time>2013-01-06T09:35:20Z</time>
      </trkpt>
      <trkpt lat="44.25704" lon="3.40904">
        <ele>1061.91</ele>
        <time>2013-01-06T09:35:32Z</time>
      </trkpt>
      <trkpt lat="44.25706" lon="3.40902">
        <ele>1060.95</ele>
        <time>2013-01-06T09:35:35Z</time>
      </trkpt>
      <trkpt lat="44.25708" lon="3.40901">
        <ele>1059.51</ele>
        <time>2013-01-06T09:35:37Z</time>
      </trkpt>
      <trkpt lat="44.25714" lon="3.40896">
        <ele>1059.99</ele>
        <time>2013-01-06T09:35:49Z</time>
      </trkpt>
      <trkpt lat="44.25718" lon="3.40894">
        <ele>1061.43</ele>
        <time>2013-01-06T09:35:56Z</time>
      </trkpt>
      <trkpt lat="44.25717" lon="3.40895">
        <ele>1061.43</ele>
        <time>2013-01-06T09:36:08Z</time>
      </trkpt>
      <trkpt lat="44.25716" lon="3.40899">
        <ele>1061.43</ele>
        <time>2013-01-06T09:36:15Z</time>
      </trkpt>
      <trkpt lat="44.25714" lon="3.40906">
        <ele>1060.47</ele>
        <time>2013-01-06T09:36:27Z</time>
      </trkpt>
      <trkpt lat="44.25715" lon="3.40906">
        <ele>1058.55</ele>
        <time>2013-01-06T09:36:43Z</time>
      </trkpt>
      <trkpt lat="44.25716" lon="3.40902">
        <ele>1059.99</ele>
        <time>2013-01-06T09:36:59Z</time>
      </trkpt>
      <trkpt lat="44.25717" lon="3.409">
        <ele>1058.55</ele>
        <time>2013-01-06T09:37:12Z</time>
      </trkpt>
      <trkpt lat="44.25718" lon="3.40901">
        <ele>1059.03</ele>
        <time>2013-01-06T09:37:37Z</time>
      </trkpt>
      <trkpt lat="44.25718" lon="3.40901">
        <ele>1058.55</ele>
        <time>2013-01-06T09:38:05Z</time>
      </trkpt>
      <trkpt lat="44.25718" lon="3.40902">
        <ele>1059.51</ele>
        <time>2013-01-06T09:38:22Z</time>
      </trkpt>
      <trkpt lat="44.25717" lon="3.40906">
        <ele>1059.99</ele>
        <time>2013-01-06T09:38:36Z</time>
      </trkpt>
      <trkpt lat="44.25715" lon="3.40906">
        <ele>1059.99</ele>
        <time>2013-01-06T09:39:04Z</time>
      </trkpt>
      <trkpt lat="44.25718" lon="3.40903">
        <ele>1059.99</ele>
        <time>2013-01-06T09:39:17Z</time>
      </trkpt>
      <trkpt lat="44.25718" lon="3.40904">
        <ele>1059.99</ele>
        <time>2013-01-06T09:39:31Z</time>
      </trkpt>
      <trkpt lat="44.2572" lon="3.40905">
        <ele>1059.51</ele>
        <time>2013-01-06T09:39:43Z</time>
      </trkpt>
      <trkpt lat="44.25728" lon="3.40906">
        <ele>1059.51</ele>
        <time>2013-01-06T09:39:56Z</time>
      </trkpt>
      <trkpt lat="44.25732" lon="3.40908">
        <ele>1060.47</ele>
        <time>2013-01-06T09:40:00Z</time>
      </trkpt>
      <trkpt lat="44.25746" lon="3.40907">
        <ele>1061.43</ele>
        <time>2013-01-06T09:40:18Z</time>
      </trkpt>
      <trkpt lat="44.25754" lon="3.4091">
        <ele>1060.47</ele>
        <time>2013-01-06T09:40:28Z</time>
      </trkpt>
      <trkpt lat="44.2576" lon="3.40908">
        <ele>1060.95</ele>
        <time>2013-01-06T09:40:47Z</time>
      </trkpt>
      <trkpt lat="44.25763" lon="3.40906">
        <ele>1059.51</ele>
        <time>2013-01-06T09:40:50Z</time>
      </trkpt>
      <trkpt lat="44.25787" lon="3.40907">
        <ele>1059.03</ele>
        <time>2013-01-06T09:41:09Z</time>
      </trkpt>
      <trkpt lat="44.25807" lon="3.40908">
        <ele>1055.67</ele>
        <time>2013-01-06T09:41:27Z</time>
      </trkpt>
      <trkpt lat="44.25811" lon="3.40911">
        <ele>1055.67</ele>
        <time>2013-01-06T09:41:31Z</time>
      </trkpt>
      <trkpt lat="44.25817" lon="3.40915">
        <ele>1055.67</ele>
        <time>2013-01-06T09:41:36Z</time>
      </trkpt>
      <trkpt lat="44.25842" lon="3.40933">
        <ele>1052.3</ele>
        <time>2013-01-06T09:41:58Z</time>
      </trkpt>
      <trkpt lat="44.25853" lon="3.40934">
        <ele>1055.67</ele>
        <time>2013-01-06T09:42:11Z</time>
      </trkpt>
      <trkpt lat="44.25871" lon="3.40942">
        <ele>1057.11</ele>
        <time>2013-01-06T09:42:26Z</time>
      </trkpt>
      <trkpt lat="44.25889" lon="3.4095">
        <ele>1057.59</ele>
        <time>2013-01-06T09:42:44Z</time>
      </trkpt>
      <trkpt lat="44.25901" lon="3.40953">
        <ele>1058.07</ele>
        <time>2013-01-06T09:42:55Z</time>
      </trkpt>
      <trkpt lat="44.25916" lon="3.40952">
        <ele>1057.59</ele>
        <time>2013-01-06T09:43:07Z</time>
      </trkpt>
      <trkpt lat="44.2592" lon="3.40952">
        <ele>1057.11</ele>
        <time>2013-01-06T09:43:11Z</time>
      </trkpt>
      <trkpt lat="44.25941" lon="3.40951">
        <ele>1055.18</ele>
        <time>2013-01-06T09:43:29Z</time>
      </trkpt>
      <trkpt lat="44.2596" lon="3.40949">
        <ele>1053.74</ele>
        <time>2013-01-06T09:43:45Z</time>
      </trkpt>
      <trkpt lat="44.25977" lon="3.40941">
        <ele>1053.74</ele>
        <time>2013-01-06T09:44:06Z</time>
      </trkpt>
      <trkpt lat="44.25983" lon="3.40934">
        <ele>1053.26</ele>
        <time>2013-01-06T09:44:24Z</time>
      </trkpt>
      <trkpt lat="44.25982" lon="3.40935">
        <ele>1053.26</ele>
        <time>2013-01-06T09:44:56Z</time>
      </trkpt>
      <trkpt lat="44.25982" lon="3.40932">
        <ele>1053.26</ele>
        <time>2013-01-06T09:45:18Z</time>
      </trkpt>
      <trkpt lat="44.25981" lon="3.40932">
        <ele>1053.26</ele>
        <time>2013-01-06T09:45:47Z</time>
      </trkpt>
      <trkpt lat="44.25988" lon="3.40926">
        <ele>1051.82</ele>
        <time>2013-01-06T09:46:06Z</time>
      </trkpt>
      <trkpt lat="44.25995" lon="3.40928">
        <ele>1053.74</ele>
        <time>2013-01-06T09:46:14Z</time>
      </trkpt>
      <trkpt lat="44.26008" lon="3.40949">
        <ele>1057.11</ele>
        <time>2013-01-06T09:46:30Z</time>
      </trkpt>
      <trkpt lat="44.26008" lon="3.40945">
        <ele>1056.15</ele>
        <time>2013-01-06T09:46:58Z</time>
      </trkpt>
      <trkpt lat="44.26009" lon="3.40946">
        <ele>1054.7</ele>
        <time>2013-01-06T09:47:32Z</time>
      </trkpt>
      <trkpt lat="44.26013" lon="3.40937">
        <ele>1054.7</ele>
        <time>2013-01-06T09:47:50Z</time>
      </trkpt>
      <trkpt lat="44.26017" lon="3.40939">
        <ele>1055.18</ele>
        <time>2013-01-06T09:48:07Z</time>
      </trkpt>
      <trkpt lat="44.26016" lon="3.40939">
        <ele>1055.18</ele>
        <time>2013-01-06T09:48:41Z</time>
      </trkpt>
      <trkpt lat="44.26017" lon="3.40938">
        <ele>1055.18</ele>
        <time>2013-01-06T09:48:58Z</time>
      </trkpt>
      <trkpt lat="44.26018" lon="3.4094">
        <ele>1055.18</ele>
        <time>2013-01-06T09:49:26Z</time>
      </trkpt>
      <trkpt lat="44.26017" lon="3.40937">
        <ele>1055.67</ele>
        <time>2013-01-06T09:49:49Z</time>
      </trkpt>
      <trkpt lat="44.26016" lon="3.40938">
        <ele>1055.67</ele>
        <time>2013-01-06T09:50:06Z</time>
      </trkpt>
      <trkpt lat="44.26017" lon="3.40938">
        <ele>1055.67</ele>
        <time>2013-01-06T09:50:27Z</time>
      </trkpt>
      <trkpt lat="44.26023" lon="3.40935">
        <ele>1055.18</ele>
        <time>2013-01-06T09:50:39Z</time>
      </trkpt>
      <trkpt lat="44.2603" lon="3.40931">
        <ele>1056.63</ele>
        <time>2013-01-06T09:50:55Z</time>
      </trkpt>
      <trkpt lat="44.26041" lon="3.40928">
        <ele>1057.59</ele>
        <time>2013-01-06T09:51:08Z</time>
      </trkpt>
      <trkpt lat="44.26017" lon="3.40936">
        <ele>1056.15</ele>
        <time>2013-01-06T09:51:26Z</time>
      </trkpt>
      <trkpt lat="44.26017" lon="3.40936">
        <ele>1056.15</ele>
        <time>2013-01-06T09:51:32Z</time>
      </trkpt>
      <trkpt lat="44.26043" lon="3.40928">
        <ele>1056.63</ele>
        <time>2013-01-06T09:51:52Z</time>
      </trkpt>
      <trkpt lat="44.26065" lon="3.40919">
        <ele>1058.07</ele>
        <time>2013-01-06T09:52:09Z</time>
      </trkpt>
      <trkpt lat="44.26085" lon="3.409">
        <ele>1059.51</ele>
        <time>2013-01-06T09:52:27Z</time>
      </trkpt>
      <trkpt lat="44.26102" lon="3.4088">
        <ele>1060.95</ele>
        <time>2013-01-06T09:52:44Z</time>
      </trkpt>
      <trkpt lat="44.2611" lon="3.40871">
        <ele>1061.43</ele>
        <time>2013-01-06T09:52:53Z</time>
      </trkpt>
      <trkpt lat="44.26123" lon="3.40871">
        <ele>1062.87</ele>
        <time>2013-01-06T09:53:06Z</time>
      </trkpt>
      <trkpt lat="44.26129" lon="3.40868">
        <ele>1063.84</ele>
        <time>2013-01-06T09:53:23Z</time>
      </trkpt>
      <trkpt lat="44.26145" lon="3.40866">
        <ele>1065.28</ele>
        <time>2013-01-06T09:53:39Z</time>
      </trkpt>
      <trkpt lat="44.26158" lon="3.40868">
        <ele>1068.16</ele>
        <time>2013-01-06T09:53:54Z</time>
      </trkpt>
      <trkpt lat="44.26168" lon="3.40865">
        <ele>1070.08</ele>
        <time>2013-01-06T09:54:09Z</time>
      </trkpt>
      <trkpt lat="44.26169" lon="3.40857">
        <ele>1071.53</ele>
        <time>2013-01-06T09:54:23Z</time>
      </trkpt>
      <trkpt lat="44.26167" lon="3.4085">
        <ele>1071.53</ele>
        <time>2013-01-06T09:54:42Z</time>
      </trkpt>
      <trkpt lat="44.26171" lon="3.40837">
        <ele>1074.41</ele>
        <time>2013-01-06T09:54:55Z</time>
      </trkpt>
      <trkpt lat="44.26172" lon="3.40835">
        <ele>1074.41</ele>
        <time>2013-01-06T09:54:57Z</time>
      </trkpt>
      <trkpt lat="44.26178" lon="3.40823">
        <ele>1077.78</ele>
        <time>2013-01-06T09:55:09Z</time>
      </trkpt>
      <trkpt lat="44.26181" lon="3.4082">
        <ele>1077.78</ele>
        <time>2013-01-06T09:55:13Z</time>
      </trkpt>
      <trkpt lat="44.26191" lon="3.4082">
        <ele>1080.18</ele>
        <time>2013-01-06T09:55:25Z</time>
      </trkpt>
      <trkpt lat="44.26197" lon="3.4082">
        <ele>1081.62</ele>
        <time>2013-01-06T09:55:36Z</time>
      </trkpt>
      <trkpt lat="44.26198" lon="3.40821">
        <ele>1081.14</ele>
        <time>2013-01-06T09:55:59Z</time>
      </trkpt>
      <trkpt lat="44.26206" lon="3.4082">
        <ele>1083.54</ele>
        <time>2013-01-06T09:56:13Z</time>
      </trkpt>
      <trkpt lat="44.26206" lon="3.40819">
        <ele>1083.54</ele>
        <time>2013-01-06T09:56:14Z</time>
      </trkpt>
      <trkpt lat="44.26207" lon="3.40818">
        <ele>1083.54</ele>
        <time>2013-01-06T09:56:15Z</time>
      </trkpt>
      <trkpt lat="44.26209" lon="3.40815">
        <ele>1084.5</ele>
        <time>2013-01-06T09:56:18Z</time>
      </trkpt>
      <trkpt lat="44.26221" lon="3.40822">
        <ele>1084.99</ele>
        <time>2013-01-06T09:56:30Z</time>
      </trkpt>
      <trkpt lat="44.2623" lon="3.40827">
        <ele>1086.91</ele>
        <time>2013-01-06T09:56:40Z</time>
      </trkpt>
      <trkpt lat="44.26243" lon="3.40827">
        <ele>1088.35</ele>
        <time>2013-01-06T09:56:52Z</time>
      </trkpt>
      <trkpt lat="44.26253" lon="3.40823">
        <ele>1090.75</ele>
        <time>2013-01-06T09:57:05Z</time>
      </trkpt>
      <trkpt lat="44.26257" lon="3.40816">
        <ele>1091.23</ele>
        <time>2013-01-06T09:57:17Z</time>
      </trkpt>
      <trkpt lat="44.2626" lon="3.40811">
        <ele>1091.23</ele>
        <time>2013-01-06T09:57:31Z</time>
      </trkpt>
      <trkpt lat="44.26266" lon="3.40807">
        <ele>1091.71</ele>
        <time>2013-01-06T09:57:38Z</time>
      </trkpt>
      <trkpt lat="44.26278" lon="3.4081">
        <ele>1093.16</ele>
        <time>2013-01-06T09:57:53Z</time>
      </trkpt>
      <trkpt lat="44.26294" lon="3.40816">
        <ele>1094.6</ele>
        <time>2013-01-06T09:58:08Z</time>
      </trkpt>
      <trkpt lat="44.26311" lon="3.40822">
        <ele>1097.96</ele>
        <time>2013-01-06T09:58:24Z</time>
      </trkpt>
      <trkpt lat="44.2633" lon="3.40833">
        <ele>1099.4</ele>
        <time>2013-01-06T09:58:42Z</time>
      </trkpt>
      <trkpt lat="44.26347" lon="3.40846">
        <ele>1099.89</ele>
        <time>2013-01-06T09:58:57Z</time>
      </trkpt>
      <trkpt lat="44.26356" lon="3.40849">
        <ele>1100.85</ele>
        <time>2013-01-06T09:59:10Z</time>
      </trkpt>
      <trkpt lat="44.26358" lon="3.40849">
        <ele>1100.85</ele>
        <time>2013-01-06T09:59:14Z</time>
      </trkpt>
      <trkpt lat="44.26361" lon="3.40856">
        <ele>1100.85</ele>
        <time>2013-01-06T09:59:19Z</time>
      </trkpt>
      <trkpt lat="44.26367" lon="3.40887">
        <ele>1100.85</ele>
        <time>2013-01-06T09:59:39Z</time>
      </trkpt>
      <trkpt lat="44.26374" lon="3.40921">
        <ele>1100.85</ele>
        <time>2013-01-06T10:00:00Z</time>
      </trkpt>
      <trkpt lat="44.26376" lon="3.40928">
        <ele>1101.33</ele>
        <time>2013-01-06T10:00:04Z</time>
      </trkpt>
      <trkpt lat="44.26383" lon="3.40949">
        <ele>1102.29</ele>
        <time>2013-01-06T10:00:19Z</time>
      </trkpt>
      <trkpt lat="44.26387" lon="3.40957">
        <ele>1101.81</ele>
        <time>2013-01-06T10:00:26Z</time>
      </trkpt>
      <trkpt lat="44.26387" lon="3.40959">
        <ele>1103.73</ele>
        <time>2013-01-06T10:00:27Z</time>
      </trkpt>
      <trkpt lat="44.26388" lon="3.40967">
        <ele>1101.81</ele>
        <time>2013-01-06T10:00:38Z</time>
      </trkpt>
      <trkpt lat="44.26389" lon="3.4097">
        <ele>1102.29</ele>
        <time>2013-01-06T10:00:40Z</time>
      </trkpt>
      <trkpt lat="44.26389" lon="3.40975">
        <ele>1105.17</ele>
        <time>2013-01-06T10:00:43Z</time>
      </trkpt>
      <trkpt lat="44.2639" lon="3.40976">
        <ele>1101.81</ele>
        <time>2013-01-06T10:00:44Z</time>
      </trkpt>
      <trkpt lat="44.26391" lon="3.40981">
        <ele>1102.77</ele>
        <time>2013-01-06T10:00:48Z</time>
      </trkpt>
      <trkpt lat="44.26394" lon="3.41006">
        <ele>1102.77</ele>
        <time>2013-01-06T10:01:05Z</time>
      </trkpt>
      <trkpt lat="44.26398" lon="3.41015">
        <ele>1103.25</ele>
        <time>2013-01-06T10:01:11Z</time>
      </trkpt>
      <trkpt lat="44.26399" lon="3.41023">
        <ele>1103.73</ele>
        <time>2013-01-06T10:01:16Z</time>
      </trkpt>
      <trkpt lat="44.26409" lon="3.41036">
        <ele>1104.69</ele>
        <time>2013-01-06T10:01:32Z</time>
      </trkpt>
      <trkpt lat="44.2641" lon="3.41038">
        <ele>1104.21</ele>
        <time>2013-01-06T10:01:34Z</time>
      </trkpt>
      <trkpt lat="44.26421" lon="3.41055">
        <ele>1104.69</ele>
        <time>2013-01-06T10:01:50Z</time>
      </trkpt>
      <trkpt lat="44.26425" lon="3.41061">
        <ele>1104.69</ele>
        <time>2013-01-06T10:01:56Z</time>
      </trkpt>
      <trkpt lat="44.26435" lon="3.41079">
        <ele>1106.13</ele>
        <time>2013-01-06T10:02:10Z</time>
      </trkpt>
      <trkpt lat="44.26443" lon="3.4109">
        <ele>1108.54</ele>
        <time>2013-01-06T10:02:22Z</time>
      </trkpt>
      <trkpt lat="44.26443" lon="3.41091">
        <ele>1108.54</ele>
        <time>2013-01-06T10:02:23Z</time>
      </trkpt>
      <trkpt lat="44.26446" lon="3.41092">
        <ele>1107.58</ele>
        <time>2013-01-06T10:02:41Z</time>
      </trkpt>
      <trkpt lat="44.26445" lon="3.41092">
        <ele>1108.54</ele>
        <time>2013-01-06T10:03:02Z</time>
      </trkpt>
      <trkpt lat="44.26445" lon="3.41092">
        <ele>1106.13</ele>
        <time>2013-01-06T10:03:30Z</time>
      </trkpt>
      <trkpt lat="44.26446" lon="3.41092">
        <ele>1108.54</ele>
        <time>2013-01-06T10:03:57Z</time>
      </trkpt>
      <trkpt lat="44.26444" lon="3.41092">
        <ele>1108.54</ele>
        <time>2013-01-06T10:04:10Z</time>
      </trkpt>
      <trkpt lat="44.26443" lon="3.41094">
        <ele>1108.06</ele>
        <time>2013-01-06T10:04:23Z</time>
      </trkpt>
      <trkpt lat="44.26443" lon="3.41092">
        <ele>1108.54</ele>
        <time>2013-01-06T10:04:38Z</time>
      </trkpt>
      <trkpt lat="44.26442" lon="3.41092">
        <ele>1108.06</ele>
        <time>2013-01-06T10:04:53Z</time>
      </trkpt>
      <trkpt lat="44.26442" lon="3.41095">
        <ele>1107.58</ele>
        <time>2013-01-06T10:05:08Z</time>
      </trkpt>
      <trkpt lat="44.26443" lon="3.41091">
        <ele>1108.06</ele>
        <time>2013-01-06T10:05:33Z</time>
      </trkpt>
      <trkpt lat="44.26445" lon="3.41087">
        <ele>1107.1</ele>
        <time>2013-01-06T10:06:03Z</time>
      </trkpt>
      <trkpt lat="44.26443" lon="3.41091">
        <ele>1108.54</ele>
        <time>2013-01-06T10:06:33Z</time>
      </trkpt>
      <trkpt lat="44.26443" lon="3.41095">
        <ele>1108.06</ele>
        <time>2013-01-06T10:07:07Z</time>
      </trkpt>
      <trkpt lat="44.26443" lon="3.41097">
        <ele>1107.1</ele>
        <time>2013-01-06T10:07:34Z</time>
      </trkpt>
      <trkpt lat="44.26438" lon="3.41092">
        <ele>1107.58</ele>
        <time>2013-01-06T10:08:15Z</time>
      </trkpt>
      <trkpt lat="44.26441" lon="3.4109">
        <ele>1107.1</ele>
        <time>2013-01-06T10:08:42Z</time>
      </trkpt>
      <trkpt lat="44.26445" lon="3.41095">
        <ele>1107.1</ele>
        <time>2013-01-06T10:09:10Z</time>
      </trkpt>
      <trkpt lat="44.2644" lon="3.41093">
        <ele>1108.54</ele>
        <time>2013-01-06T10:09:34Z</time>
      </trkpt>
      <trkpt lat="44.26443" lon="3.41093">
        <ele>1107.58</ele>
        <time>2013-01-06T10:09:57Z</time>
      </trkpt>
      <trkpt lat="44.26442" lon="3.41095">
        <ele>1108.06</ele>
        <time>2013-01-06T10:10:26Z</time>
      </trkpt>
      <trkpt lat="44.26444" lon="3.41092">
        <ele>1108.06</ele>
        <time>2013-01-06T10:10:57Z</time>
      </trkpt>
      <trkpt lat="44.2644" lon="3.41095">
        <ele>1108.06</ele>
        <time>2013-01-06T10:11:21Z</time>
      </trkpt>
      <trkpt lat="44.26446" lon="3.41102">
        <ele>1106.61</ele>
        <time>2013-01-06T10:11:41Z</time>
      </trkpt>
      <trkpt lat="44.26453" lon="3.41112">
        <ele>1107.58</ele>
        <time>2013-01-06T10:11:50Z</time>
      </trkpt>
      <trkpt lat="44.26477" lon="3.41133">
        <ele>1107.1</ele>
        <time>2013-01-06T10:12:14Z</time>
      </trkpt>
      <trkpt lat="44.26499" lon="3.41163">
        <ele>1108.54</ele>
        <time>2013-01-06T10:12:39Z</time>
      </trkpt>
      <trkpt lat="44.265" lon="3.41166">
        <ele>1109.02</ele>
        <time>2013-01-06T10:12:41Z</time>
      </trkpt>
      <trkpt lat="44.26518" lon="3.41199">
        <ele>1108.54</ele>
        <time>2013-01-06T10:13:06Z</time>
      </trkpt>
      <trkpt lat="44.2653" lon="3.41201">
        <ele>1108.54</ele>
        <time>2013-01-06T10:13:24Z</time>
      </trkpt>
      <trkpt lat="44.26538" lon="3.41207">
        <ele>1106.13</ele>
        <time>2013-01-06T10:13:40Z</time>
      </trkpt>
      <trkpt lat="44.26545" lon="3.41206">
        <ele>1105.17</ele>
        <time>2013-01-06T10:13:44Z</time>
      </trkpt>
      <trkpt lat="44.26562" lon="3.41207">
        <ele>1103.25</ele>
        <time>2013-01-06T10:13:57Z</time>
      </trkpt>
      <trkpt lat="44.2658" lon="3.4122">
        <ele>1100.37</ele>
        <time>2013-01-06T10:14:16Z</time>
      </trkpt>
      <trkpt lat="44.26601" lon="3.41214">
        <ele>1097.96</ele>
        <time>2013-01-06T10:14:34Z</time>
      </trkpt>
      <trkpt lat="44.26612" lon="3.41189">
        <ele>1094.12</ele>
        <time>2013-01-06T10:14:53Z</time>
      </trkpt>
      <trkpt lat="44.26623" lon="3.41181">
        <ele>1092.2</ele>
        <time>2013-01-06T10:15:07Z</time>
      </trkpt>
      <trkpt lat="44.26632" lon="3.41175">
        <ele>1089.31</ele>
        <time>2013-01-06T10:15:19Z</time>
      </trkpt>
      <trkpt lat="44.26638" lon="3.41174">
        <ele>1088.83</ele>
        <time>2013-01-06T10:15:24Z</time>
      </trkpt>
      <trkpt lat="44.26657" lon="3.41196">
        <ele>1086.43</ele>
        <time>2013-01-06T10:15:44Z</time>
      </trkpt>
      <trkpt lat="44.26664" lon="3.41209">
        <ele>1086.91</ele>
        <time>2013-01-06T10:15:53Z</time>
      </trkpt>
      <trkpt lat="44.26677" lon="3.41216">
        <ele>1084.99</ele>
        <time>2013-01-06T10:16:01Z</time>
      </trkpt>
      <trkpt lat="44.26684" lon="3.41214">
        <ele>1082.58</ele>
        <time>2013-01-06T10:16:10Z</time>
      </trkpt>
      <trkpt lat="44.26694" lon="3.41202">
        <ele>1079.22</ele>
        <time>2013-01-06T10:16:22Z</time>
      </trkpt>
      <trkpt lat="44.26695" lon="3.412">
        <ele>1078.26</ele>
        <time>2013-01-06T10:16:24Z</time>
      </trkpt>
      <trkpt lat="44.26704" lon="3.41194">
        <ele>1075.37</ele>
        <time>2013-01-06T10:16:40Z</time>
      </trkpt>
      <trkpt lat="44.26711" lon="3.41184">
        <ele>1073.45</ele>
        <time>2013-01-06T10:16:52Z</time>
      </trkpt>
      <trkpt lat="44.26712" lon="3.41181">
        <ele>1072.49</ele>
        <time>2013-01-06T10:16:54Z</time>
      </trkpt>
      <trkpt lat="44.26727" lon="3.41172">
        <ele>1069.12</ele>
        <time>2013-01-06T10:17:06Z</time>
      </trkpt>
      <trkpt lat="44.26732" lon="3.4117">
        <ele>1068.16</ele>
        <time>2013-01-06T10:17:11Z</time>
      </trkpt>
      <trkpt lat="44.26734" lon="3.41166">
        <ele>1067.68</ele>
        <time>2013-01-06T10:17:30Z</time>
      </trkpt>
      <trkpt lat="44.26738" lon="3.41165">
        <ele>1064.32</ele>
        <time>2013-01-06T10:17:37Z</time>
      </trkpt>
      <trkpt lat="44.26745" lon="3.4116">
        <ele>1061.43</ele>
        <time>2013-01-06T10:17:47Z</time>
      </trkpt>
      <trkpt lat="44.26751" lon="3.41158">
        <ele>1059.03</ele>
        <time>2013-01-06T10:17:56Z</time>
      </trkpt>
      <trkpt lat="44.26767" lon="3.41151">
        <ele>1055.18</ele>
        <time>2013-01-06T10:18:14Z</time>
      </trkpt>
      <trkpt lat="44.26776" lon="3.41144">
        <ele>1052.3</ele>
        <time>2013-01-06T10:18:27Z</time>
      </trkpt>
      <trkpt lat="44.26784" lon="3.41141">
        <ele>1051.34</ele>
        <time>2013-01-06T10:18:47Z</time>
      </trkpt>
      <trkpt lat="44.26793" lon="3.41138">
        <ele>1047.97</ele>
        <time>2013-01-06T10:19:03Z</time>
      </trkpt>
      <trkpt lat="44.26793" lon="3.41135">
        <ele>1047.01</ele>
        <time>2013-01-06T10:19:06Z</time>
      </trkpt>
      <trkpt lat="44.26799" lon="3.41133">
        <ele>1043.65</ele>
        <time>2013-01-06T10:19:15Z</time>
      </trkpt>
      <trkpt lat="44.26805" lon="3.41126">
        <ele>1039.8</ele>
        <time>2013-01-06T10:19:26Z</time>
      </trkpt>
      <trkpt lat="44.26808" lon="3.41121">
        <ele>1039.32</ele>
        <time>2013-01-06T10:19:31Z</time>
      </trkpt>
      <trkpt lat="44.26819" lon="3.41111">
        <ele>1035.96</ele>
        <time>2013-01-06T10:19:47Z</time>
      </trkpt>
      <trkpt lat="44.26814" lon="3.41104">
        <ele>1037.88</ele>
        <time>2013-01-06T10:19:54Z</time>
      </trkpt>
      <trkpt lat="44.26814" lon="3.41092">
        <ele>1035</ele>
        <time>2013-01-06T10:20:08Z</time>
      </trkpt>
      <trkpt lat="44.2682" lon="3.41083">
        <ele>1032.11</ele>
        <time>2013-01-06T10:20:20Z</time>
      </trkpt>
      <trkpt lat="44.2683" lon="3.41083">
        <ele>1029.23</ele>
        <time>2013-01-06T10:20:31Z</time>
      </trkpt>
      <trkpt lat="44.26845" lon="3.4108">
        <ele>1025.86</ele>
        <time>2013-01-06T10:20:42Z</time>
      </trkpt>
      <trkpt lat="44.26855" lon="3.41076">
        <ele>1022.02</ele>
        <time>2013-01-06T10:20:53Z</time>
      </trkpt>
      <trkpt lat="44.26862" lon="3.41077">
        <ele>1018.65</ele>
        <time>2013-01-06T10:21:08Z</time>
      </trkpt>
      <trkpt lat="44.26882" lon="3.41083">
        <ele>1014.81</ele>
        <time>2013-01-06T10:21:26Z</time>
      </trkpt>
      <trkpt lat="44.26887" lon="3.41079">
        <ele>1014.33</ele>
        <time>2013-01-06T10:21:31Z</time>
      </trkpt>
      <trkpt lat="44.2689" lon="3.41075">
        <ele>1013.37</ele>
        <time>2013-01-06T10:21:34Z</time>
      </trkpt>
      <trkpt lat="44.26898" lon="3.41071">
        <ele>1010</ele>
        <time>2013-01-06T10:21:46Z</time>
      </trkpt>
      <trkpt lat="44.26907" lon="3.41076">
        <ele>1006.16</ele>
        <time>2013-01-06T10:21:55Z</time>
      </trkpt>
      <trkpt lat="44.26922" lon="3.41075">
        <ele>1003.27</ele>
        <time>2013-01-06T10:22:08Z</time>
      </trkpt>
      <trkpt lat="44.26926" lon="3.41053">
        <ele>1002.31</ele>
        <time>2013-01-06T10:22:27Z</time>
      </trkpt>
      <trkpt lat="44.26932" lon="3.41049">
        <ele>998.47</ele>
        <time>2013-01-06T10:22:38Z</time>
      </trkpt>
      <trkpt lat="44.26941" lon="3.41036">
        <ele>995.58</ele>
        <time>2013-01-06T10:23:00Z</time>
      </trkpt>
      <trkpt lat="44.26951" lon="3.41024">
        <ele>992.7</ele>
        <time>2013-01-06T10:23:18Z</time>
      </trkpt>
      <trkpt lat="44.26956" lon="3.41026">
        <ele>991.26</ele>
        <time>2013-01-06T10:23:24Z</time>
      </trkpt>
      <trkpt lat="44.26965" lon="3.41036">
        <ele>987.89</ele>
        <time>2013-01-06T10:23:38Z</time>
      </trkpt>
      <trkpt lat="44.26974" lon="3.41042">
        <ele>985.01</ele>
        <time>2013-01-06T10:23:58Z</time>
      </trkpt>
      <trkpt lat="44.26981" lon="3.4105">
        <ele>981.64</ele>
        <time>2013-01-06T10:24:08Z</time>
      </trkpt>
      <trkpt lat="44.26994" lon="3.41054">
        <ele>979.72</ele>
        <time>2013-01-06T10:24:22Z</time>
      </trkpt>
      <trkpt lat="44.27" lon="3.41043">
        <ele>976.36</ele>
        <time>2013-01-06T10:24:32Z</time>
      </trkpt>
      <trkpt lat="44.27009" lon="3.41045">
        <ele>972.99</ele>
        <time>2013-01-06T10:24:48Z</time>
      </trkpt>
      <trkpt lat="44.27019" lon="3.41046">
        <ele>971.07</ele>
        <time>2013-01-06T10:25:10Z</time>
      </trkpt>
      <trkpt lat="44.27032" lon="3.41014">
        <ele>972.03</ele>
        <time>2013-01-06T10:25:28Z</time>
      </trkpt>
      <trkpt lat="44.27039" lon="3.40994">
        <ele>969.63</ele>
        <time>2013-01-06T10:25:49Z</time>
      </trkpt>
      <trkpt lat="44.27042" lon="3.40995">
        <ele>968.18</ele>
        <time>2013-01-06T10:25:52Z</time>
      </trkpt>
      <trkpt lat="44.27059" lon="3.40999">
        <ele>965.78</ele>
        <time>2013-01-06T10:26:12Z</time>
      </trkpt>
      <trkpt lat="44.27077" lon="3.40994">
        <ele>963.38</ele>
        <time>2013-01-06T10:26:31Z</time>
      </trkpt>
      <trkpt lat="44.27087" lon="3.41002">
        <ele>960.01</ele>
        <time>2013-01-06T10:26:41Z</time>
      </trkpt>
      <trkpt lat="44.27102" lon="3.41009">
        <ele>956.65</ele>
        <time>2013-01-06T10:26:57Z</time>
      </trkpt>
      <trkpt lat="44.27109" lon="3.41018">
        <ele>953.28</ele>
        <time>2013-01-06T10:27:13Z</time>
      </trkpt>
      <trkpt lat="44.27109" lon="3.41026">
        <ele>951.84</ele>
        <time>2013-01-06T10:27:21Z</time>
      </trkpt>
      <trkpt lat="44.27117" lon="3.41044">
        <ele>951.84</ele>
        <time>2013-01-06T10:27:44Z</time>
      </trkpt>
      <trkpt lat="44.27118" lon="3.41049">
        <ele>949.92</ele>
        <time>2013-01-06T10:27:52Z</time>
      </trkpt>
      <trkpt lat="44.27121" lon="3.41053">
        <ele>948.48</ele>
        <time>2013-01-06T10:27:56Z</time>
      </trkpt>
      <trkpt lat="44.27136" lon="3.41081">
        <ele>947.52</ele>
        <time>2013-01-06T10:28:20Z</time>
      </trkpt>
      <trkpt lat="44.27148" lon="3.41098">
        <ele>948.48</ele>
        <time>2013-01-06T10:28:35Z</time>
      </trkpt>
      <trkpt lat="44.27163" lon="3.4111">
        <ele>948</ele>
        <time>2013-01-06T10:28:56Z</time>
      </trkpt>
      <trkpt lat="44.27168" lon="3.41111">
        <ele>947.04</ele>
        <time>2013-01-06T10:29:16Z</time>
      </trkpt>
      <trkpt lat="44.27161" lon="3.41133">
        <ele>943.67</ele>
        <time>2013-01-06T10:29:33Z</time>
      </trkpt>
      <trkpt lat="44.27161" lon="3.41136">
        <ele>944.15</ele>
        <time>2013-01-06T10:29:35Z</time>
      </trkpt>
      <trkpt lat="44.27166" lon="3.4115">
        <ele>943.67</ele>
        <time>2013-01-06T10:29:45Z</time>
      </trkpt>
      <trkpt lat="44.27176" lon="3.41195">
        <ele>943.19</ele>
        <time>2013-01-06T10:30:12Z</time>
      </trkpt>
      <trkpt lat="44.27173" lon="3.41202">
        <ele>943.67</ele>
        <time>2013-01-06T10:30:35Z</time>
      </trkpt>
      <trkpt lat="44.27174" lon="3.41197">
        <ele>943.19</ele>
        <time>2013-01-06T10:31:05Z</time>
      </trkpt>
      <trkpt lat="44.27174" lon="3.412">
        <ele>943.19</ele>
        <time>2013-01-06T10:31:39Z</time>
      </trkpt>
      <trkpt lat="44.27175" lon="3.41199">
        <ele>943.67</ele>
        <time>2013-01-06T10:32:07Z</time>
      </trkpt>
      <trkpt lat="44.27176" lon="3.41195">
        <ele>944.15</ele>
        <time>2013-01-06T10:32:35Z</time>
      </trkpt>
      <trkpt lat="44.27177" lon="3.41199">
        <ele>944.15</ele>
        <time>2013-01-06T10:33:02Z</time>
      </trkpt>
      <trkpt lat="44.27181" lon="3.41202">
        <ele>942.71</ele>
        <time>2013-01-06T10:33:09Z</time>
      </trkpt>
      <trkpt lat="44.27193" lon="3.41181">
        <ele>943.19</ele>
        <time>2013-01-06T10:33:30Z</time>
      </trkpt>
      <trkpt lat="44.27212" lon="3.41151">
        <ele>942.23</ele>
        <time>2013-01-06T10:33:55Z</time>
      </trkpt>
      <trkpt lat="44.2723" lon="3.41124">
        <ele>942.23</ele>
        <time>2013-01-06T10:34:18Z</time>
      </trkpt>
      <trkpt lat="44.27258" lon="3.41092">
        <ele>943.19</ele>
        <time>2013-01-06T10:34:43Z</time>
      </trkpt>
      <trkpt lat="44.27281" lon="3.4108">
        <ele>946.07</ele>
        <time>2013-01-06T10:35:05Z</time>
      </trkpt>
      <trkpt lat="44.27298" lon="3.41088">
        <ele>944.15</ele>
        <time>2013-01-06T10:35:28Z</time>
      </trkpt>
      <trkpt lat="44.27307" lon="3.41085">
        <ele>945.59</ele>
        <time>2013-01-06T10:35:49Z</time>
      </trkpt>
      <trkpt lat="44.27306" lon="3.41085">
        <ele>946.56</ele>
        <time>2013-01-06T10:36:18Z</time>
      </trkpt>
      <trkpt lat="44.27307" lon="3.41086">
        <ele>946.56</ele>
        <time>2013-01-06T10:36:41Z</time>
      </trkpt>
      <trkpt lat="44.27308" lon="3.41087">
        <ele>946.07</ele>
        <time>2013-01-06T10:36:57Z</time>
      </trkpt>
      <trkpt lat="44.27307" lon="3.41088">
        <ele>946.56</ele>
        <time>2013-01-06T10:37:23Z</time>
      </trkpt>
      <trkpt lat="44.27306" lon="3.41084">
        <ele>946.56</ele>
        <time>2013-01-06T10:37:46Z</time>
      </trkpt>
      <trkpt lat="44.27307" lon="3.41086">
        <ele>947.04</ele>
        <time>2013-01-06T10:38:13Z</time>
      </trkpt>
      <trkpt lat="44.27308" lon="3.41088">
        <ele>947.04</ele>
        <time>2013-01-06T10:38:45Z</time>
      </trkpt>
      <trkpt lat="44.27309" lon="3.41089">
        <ele>947.04</ele>
        <time>2013-01-06T10:39:08Z</time>
      </trkpt>
      <trkpt lat="44.27313" lon="3.41091">
        <ele>946.07</ele>
        <time>2013-01-06T10:39:21Z</time>
      </trkpt>
      <trkpt lat="44.27321" lon="3.41095">
        <ele>946.07</ele>
        <time>2013-01-06T10:39:29Z</time>
      </trkpt>
      <trkpt lat="44.27332" lon="3.41097">
        <ele>946.56</ele>
        <time>2013-01-06T10:39:42Z</time>
      </trkpt>
      <trkpt lat="44.27338" lon="3.41101">
        <ele>946.07</ele>
        <time>2013-01-06T10:39:51Z</time>
      </trkpt>
      <trkpt lat="44.27346" lon="3.411">
        <ele>947.04</ele>
        <time>2013-01-06T10:40:07Z</time>
      </trkpt>
      <trkpt lat="44.27347" lon="3.41099">
        <ele>947.04</ele>
        <time>2013-01-06T10:40:20Z</time>
      </trkpt>
      <trkpt lat="44.27353" lon="3.41096">
        <ele>947.52</ele>
        <time>2013-01-06T10:40:31Z</time>
      </trkpt>
      <trkpt lat="44.27363" lon="3.41082">
        <ele>950.88</ele>
        <time>2013-01-06T10:40:45Z</time>
      </trkpt>
      <trkpt lat="44.27372" lon="3.4108">
        <ele>949.92</ele>
        <time>2013-01-06T10:40:58Z</time>
      </trkpt>
      <trkpt lat="44.27391" lon="3.41073">
        <ele>947.52</ele>
        <time>2013-01-06T10:41:20Z</time>
      </trkpt>
      <trkpt lat="44.27416" lon="3.41072">
        <ele>944.15</ele>
        <time>2013-01-06T10:41:42Z</time>
      </trkpt>
      <trkpt lat="44.27439" lon="3.41085">
        <ele>943.19</ele>
        <time>2013-01-06T10:42:00Z</time>
      </trkpt>
      <trkpt lat="44.27462" lon="3.41103">
        <ele>940.31</ele>
        <time>2013-01-06T10:42:20Z</time>
      </trkpt>
      <trkpt lat="44.27475" lon="3.41106">
        <ele>940.79</ele>
        <time>2013-01-06T10:42:37Z</time>
      </trkpt>
      <trkpt lat="44.27478" lon="3.41107">
        <ele>940.79</ele>
        <time>2013-01-06T10:42:47Z</time>
      </trkpt>
      <trkpt lat="44.2749" lon="3.41112">
        <ele>940.79</ele>
        <time>2013-01-06T10:43:08Z</time>
      </trkpt>
      <trkpt lat="44.27502" lon="3.41118">
        <ele>940.79</ele>
        <time>2013-01-06T10:43:29Z</time>
      </trkpt>
      <trkpt lat="44.27506" lon="3.41121">
        <ele>940.79</ele>
        <time>2013-01-06T10:43:48Z</time>
      </trkpt>
      <trkpt lat="44.27515" lon="3.41126">
        <ele>939.83</ele>
        <time>2013-01-06T10:44:15Z</time>
      </trkpt>
      <trkpt lat="44.27525" lon="3.41128">
        <ele>940.79</ele>
        <time>2013-01-06T10:44:37Z</time>
      </trkpt>
      <trkpt lat="44.2754" lon="3.41137">
        <ele>941.27</ele>
        <time>2013-01-06T10:44:57Z</time>
      </trkpt>
      <trkpt lat="44.27559" lon="3.41144">
        <ele>940.79</ele>
        <time>2013-01-06T10:45:17Z</time>
      </trkpt>
      <trkpt lat="44.27579" lon="3.41152">
        <ele>943.19</ele>
        <time>2013-01-06T10:45:38Z</time>
      </trkpt>
      <trkpt lat="44.27577" lon="3.41158">
        <ele>942.23</ele>
        <time>2013-01-06T10:46:01Z</time>
      </trkpt>
      <trkpt lat="44.27579" lon="3.41154">
        <ele>943.19</ele>
        <time>2013-01-06T10:46:25Z</time>
      </trkpt>
      <trkpt lat="44.27577" lon="3.41151">
        <ele>942.71</ele>
        <time>2013-01-06T10:46:50Z</time>
      </trkpt>
      <trkpt lat="44.27577" lon="3.41154">
        <ele>942.71</ele>
        <time>2013-01-06T10:47:09Z</time>
      </trkpt>
      <trkpt lat="44.27578" lon="3.41151">
        <ele>943.19</ele>
        <time>2013-01-06T10:47:27Z</time>
      </trkpt>
      <trkpt lat="44.27577" lon="3.41153">
        <ele>942.71</ele>
        <time>2013-01-06T10:47:47Z</time>
      </trkpt>
      <trkpt lat="44.27579" lon="3.41153">
        <ele>941.75</ele>
        <time>2013-01-06T10:48:06Z</time>
      </trkpt>
      <trkpt lat="44.27578" lon="3.41153">
        <ele>942.23</ele>
        <time>2013-01-06T10:48:30Z</time>
      </trkpt>
      <trkpt lat="44.27579" lon="3.41153">
        <ele>941.75</ele>
        <time>2013-01-06T10:49:09Z</time>
      </trkpt>
      <trkpt lat="44.27577" lon="3.41153">
        <ele>942.71</ele>
        <time>2013-01-06T10:49:38Z</time>
      </trkpt>
      <trkpt lat="44.27578" lon="3.41152">
        <ele>941.27</ele>
        <time>2013-01-06T10:50:03Z</time>
      </trkpt>
      <trkpt lat="44.27577" lon="3.41154">
        <ele>942.23</ele>
        <time>2013-01-06T10:50:32Z</time>
      </trkpt>
      <trkpt lat="44.27581" lon="3.41152">
        <ele>942.71</ele>
        <time>2013-01-06T10:50:57Z</time>
      </trkpt>
      <trkpt lat="44.27577" lon="3.41151">
        <ele>941.75</ele>
        <time>2013-01-06T10:51:13Z</time>
      </trkpt>
      <trkpt lat="44.27577" lon="3.41153">
        <ele>941.75</ele>
        <time>2013-01-06T10:51:36Z</time>
      </trkpt>
      <trkpt lat="44.27578" lon="3.41153">
        <ele>941.75</ele>
        <time>2013-01-06T10:51:53Z</time>
      </trkpt>
      <trkpt lat="44.27578" lon="3.41153">
        <ele>942.23</ele>
        <time>2013-01-06T10:52:15Z</time>
      </trkpt>
      <trkpt lat="44.27577" lon="3.41153">
        <ele>941.27</ele>
        <time>2013-01-06T10:52:40Z</time>
      </trkpt>
      <trkpt lat="44.2758" lon="3.41155">
        <ele>942.23</ele>
        <time>2013-01-06T10:53:04Z</time>
      </trkpt>
      <trkpt lat="44.2758" lon="3.41154">
        <ele>942.23</ele>
        <time>2013-01-06T10:53:26Z</time>
      </trkpt>
      <trkpt lat="44.2758" lon="3.41166">
        <ele>942.71</ele>
        <time>2013-01-06T10:53:51Z</time>
      </trkpt>
      <trkpt lat="44.2758" lon="3.41193">
        <ele>942.71</ele>
        <time>2013-01-06T10:54:08Z</time>
      </trkpt>
      <trkpt lat="44.27582" lon="3.41239">
        <ele>943.67</ele>
        <time>2013-01-06T10:54:36Z</time>
      </trkpt>
      <trkpt lat="44.27584" lon="3.4128">
        <ele>943.67</ele>
        <time>2013-01-06T10:55:01Z</time>
      </trkpt>
      <trkpt lat="44.27581" lon="3.41316">
        <ele>944.63</ele>
        <time>2013-01-06T10:55:26Z</time>
      </trkpt>
      <trkpt lat="44.27581" lon="3.41338">
        <ele>943.67</ele>
        <time>2013-01-06T10:55:46Z</time>
      </trkpt>
      <trkpt lat="44.27581" lon="3.41377">
        <ele>941.75</ele>
        <time>2013-01-06T10:56:08Z</time>
      </trkpt>
      <trkpt lat="44.27582" lon="3.41397">
        <ele>941.27</ele>
        <time>2013-01-06T10:56:29Z</time>
      </trkpt>
      <trkpt lat="44.27587" lon="3.414">
        <ele>939.83</ele>
        <time>2013-01-06T10:56:54Z</time>
      </trkpt>
      <trkpt lat="44.276" lon="3.41414">
        <ele>938.38</ele>
        <time>2013-01-06T10:57:06Z</time>
      </trkpt>
      <trkpt lat="44.27619" lon="3.41446">
        <ele>935.98</ele>
        <time>2013-01-06T10:57:30Z</time>
      </trkpt>
      <trkpt lat="44.27626" lon="3.41483">
        <ele>936.46</ele>
        <time>2013-01-06T10:57:53Z</time>
      </trkpt>
      <trkpt lat="44.27637" lon="3.41515">
        <ele>936.94</ele>
        <time>2013-01-06T10:58:11Z</time>
      </trkpt>
      <trkpt lat="44.27639" lon="3.41527">
        <ele>937.42</ele>
        <time>2013-01-06T10:58:17Z</time>
      </trkpt>
      <trkpt lat="44.27651" lon="3.41539">
        <ele>936.94</ele>
        <time>2013-01-06T10:58:39Z</time>
      </trkpt>
      <trkpt lat="44.27648" lon="3.41542">
        <ele>937.9</ele>
        <time>2013-01-06T11:00:40Z</time>
      </trkpt>
      <trkpt lat="44.27643" lon="3.41532">
        <ele>936.46</ele>
        <time>2013-01-06T11:01:00Z</time>
      </trkpt>
      <trkpt lat="44.27643" lon="3.41531">
        <ele>936.94</ele>
        <time>2013-01-06T11:01:01Z</time>
      </trkpt>
      <trkpt lat="44.27643" lon="3.41528">
        <ele>937.42</ele>
        <time>2013-01-06T11:01:18Z</time>
      </trkpt>
      <trkpt lat="44.27625" lon="3.41533">
        <ele>935.98</ele>
        <time>2013-01-06T11:01:38Z</time>
      </trkpt>
      <trkpt lat="44.27609" lon="3.41533">
        <ele>935.5</ele>
        <time>2013-01-06T11:02:00Z</time>
      </trkpt>
      <trkpt lat="44.27602" lon="3.41522">
        <ele>934.06</ele>
        <time>2013-01-06T11:02:23Z</time>
      </trkpt>
      <trkpt lat="44.27586" lon="3.41531">
        <ele>932.62</ele>
        <time>2013-01-06T11:02:46Z</time>
      </trkpt>
      <trkpt lat="44.2756" lon="3.41559">
        <ele>931.65</ele>
        <time>2013-01-06T11:03:12Z</time>
      </trkpt>
      <trkpt lat="44.27552" lon="3.41589">
        <ele>931.65</ele>
        <time>2013-01-06T11:03:35Z</time>
      </trkpt>
      <trkpt lat="44.27538" lon="3.41605">
        <ele>931.65</ele>
        <time>2013-01-06T11:03:56Z</time>
      </trkpt>
      <trkpt lat="44.27539" lon="3.41602">
        <ele>930.69</ele>
        <time>2013-01-06T11:04:25Z</time>
      </trkpt>
      <trkpt lat="44.27542" lon="3.41601">
        <ele>930.69</ele>
        <time>2013-01-06T11:04:50Z</time>
      </trkpt>
      <trkpt lat="44.27535" lon="3.41605">
        <ele>930.21</ele>
        <time>2013-01-06T11:05:19Z</time>
      </trkpt>
      <trkpt lat="44.27533" lon="3.41595">
        <ele>930.21</ele>
        <time>2013-01-06T11:05:48Z</time>
      </trkpt>
      <trkpt lat="44.27531" lon="3.41598">
        <ele>930.69</ele>
        <time>2013-01-06T11:06:07Z</time>
      </trkpt>
      <trkpt lat="44.27506" lon="3.41587">
        <ele>931.17</ele>
        <time>2013-01-06T11:06:33Z</time>
      </trkpt>
      <trkpt lat="44.27501" lon="3.41584">
        <ele>931.17</ele>
        <time>2013-01-06T11:06:37Z</time>
      </trkpt>
      <trkpt lat="44.2749" lon="3.41572">
        <ele>932.14</ele>
        <time>2013-01-06T11:06:51Z</time>
      </trkpt>
      <trkpt lat="44.27494" lon="3.41576">
        <ele>931.17</ele>
        <time>2013-01-06T11:07:11Z</time>
      </trkpt>
      <trkpt lat="44.27472" lon="3.41566">
        <ele>930.69</ele>
        <time>2013-01-06T11:07:37Z</time>
      </trkpt>
      <trkpt lat="44.27466" lon="3.41564">
        <ele>930.21</ele>
        <time>2013-01-06T11:07:43Z</time>
      </trkpt>
      <trkpt lat="44.27432" lon="3.41552">
        <ele>929.25</ele>
        <time>2013-01-06T11:08:13Z</time>
      </trkpt>
      <trkpt lat="44.274" lon="3.41546">
        <ele>929.73</ele>
        <time>2013-01-06T11:08:37Z</time>
      </trkpt>
      <trkpt lat="44.27372" lon="3.41547">
        <ele>929.25</ele>
        <time>2013-01-06T11:08:59Z</time>
      </trkpt>
      <trkpt lat="44.27339" lon="3.41544">
        <ele>930.21</ele>
        <time>2013-01-06T11:09:24Z</time>
      </trkpt>
      <trkpt lat="44.2731" lon="3.41547">
        <ele>930.21</ele>
        <time>2013-01-06T11:09:49Z</time>
      </trkpt>
      <trkpt lat="44.27305" lon="3.41548">
        <ele>931.17</ele>
        <time>2013-01-06T11:09:53Z</time>
      </trkpt>
      <trkpt lat="44.27257" lon="3.41552">
        <ele>931.65</ele>
        <time>2013-01-06T11:10:22Z</time>
      </trkpt>
      <trkpt lat="44.27228" lon="3.41548">
        <ele>933.58</ele>
        <time>2013-01-06T11:10:47Z</time>
      </trkpt>
      <trkpt lat="44.27208" lon="3.41544">
        <ele>935.5</ele>
        <time>2013-01-06T11:11:10Z</time>
      </trkpt>
      <trkpt lat="44.27186" lon="3.41541">
        <ele>936.46</ele>
        <time>2013-01-06T11:11:30Z</time>
      </trkpt>
      <trkpt lat="44.27159" lon="3.41539">
        <ele>937.42</ele>
        <time>2013-01-06T11:11:54Z</time>
      </trkpt>
      <trkpt lat="44.27125" lon="3.41548">
        <ele>937.9</ele>
        <time>2013-01-06T11:12:19Z</time>
      </trkpt>
      <trkpt lat="44.27124" lon="3.41548">
        <ele>938.86</ele>
        <time>2013-01-06T11:12:21Z</time>
      </trkpt>
      <trkpt lat="44.27111" lon="3.41551">
        <ele>938.38</ele>
        <time>2013-01-06T11:12:43Z</time>
      </trkpt>
      <trkpt lat="44.27108" lon="3.41549">
        <ele>938.38</ele>
        <time>2013-01-06T11:13:13Z</time>
      </trkpt>
      <trkpt lat="44.27096" lon="3.41556">
        <ele>939.35</ele>
        <time>2013-01-06T11:13:39Z</time>
      </trkpt>
      <trkpt lat="44.27071" lon="3.41562">
        <ele>938.86</ele>
        <time>2013-01-06T11:14:02Z</time>
      </trkpt>
      <trkpt lat="44.27065" lon="3.41538">
        <ele>937.9</ele>
        <time>2013-01-06T11:14:23Z</time>
      </trkpt>
      <trkpt lat="44.27064" lon="3.41531">
        <ele>937.9</ele>
        <time>2013-01-06T11:14:51Z</time>
      </trkpt>
      <trkpt lat="44.27056" lon="3.41513">
        <ele>940.31</ele>
        <time>2013-01-06T11:15:12Z</time>
      </trkpt>
      <trkpt lat="44.27066" lon="3.41515">
        <ele>940.31</ele>
        <time>2013-01-06T11:15:35Z</time>
      </trkpt>
      <trkpt lat="44.2706" lon="3.41516">
        <ele>940.31</ele>
        <time>2013-01-06T11:15:56Z</time>
      </trkpt>
      <trkpt lat="44.27062" lon="3.41516">
        <ele>940.79</ele>
        <time>2013-01-06T11:16:25Z</time>
      </trkpt>
      <trkpt lat="44.2706" lon="3.41507">
        <ele>940.31</ele>
        <time>2013-01-06T11:16:54Z</time>
      </trkpt>
      <trkpt lat="44.27061" lon="3.41512">
        <ele>940.79</ele>
        <time>2013-01-06T11:17:20Z</time>
      </trkpt>
      <trkpt lat="44.27064" lon="3.41525">
        <ele>940.31</ele>
        <time>2013-01-06T11:17:49Z</time>
      </trkpt>
      <trkpt lat="44.27069" lon="3.41523">
        <ele>940.31</ele>
        <time>2013-01-06T11:18:10Z</time>
      </trkpt>
      <trkpt lat="44.27077" lon="3.41525">
        <ele>938.38</ele>
        <time>2013-01-06T11:18:31Z</time>
      </trkpt>
      <trkpt lat="44.27082" lon="3.41524">
        <ele>938.38</ele>
        <time>2013-01-06T11:18:54Z</time>
      </trkpt>
      <trkpt lat="44.2708" lon="3.41526">
        <ele>937.42</ele>
        <time>2013-01-06T11:19:11Z</time>
      </trkpt>
      <trkpt lat="44.27078" lon="3.41529">
        <ele>937.42</ele>
        <time>2013-01-06T11:19:40Z</time>
      </trkpt>
      <trkpt lat="44.27079" lon="3.41534">
        <ele>937.9</ele>
        <time>2013-01-06T11:20:07Z</time>
      </trkpt>
      <trkpt lat="44.27079" lon="3.41533">
        <ele>937.9</ele>
        <time>2013-01-06T11:20:30Z</time>
      </trkpt>
      <trkpt lat="44.27081" lon="3.41534">
        <ele>937.9</ele>
        <time>2013-01-06T11:20:56Z</time>
      </trkpt>
      <trkpt lat="44.27082" lon="3.41529">
        <ele>938.38</ele>
        <time>2013-01-06T11:21:27Z</time>
      </trkpt>
      <trkpt lat="44.27083" lon="3.41525">
        <ele>938.38</ele>
        <time>2013-01-06T11:22:01Z</time>
      </trkpt>
      <trkpt lat="44.27081" lon="3.41526">
        <ele>939.83</ele>
        <time>2013-01-06T11:22:13Z</time>
      </trkpt>
      <trkpt lat="44.27081" lon="3.41526">
        <ele>938.86</ele>
        <time>2013-01-06T11:22:15Z</time>
      </trkpt>
      <trkpt lat="44.2708" lon="3.41529">
        <ele>938.86</ele>
        <time>2013-01-06T11:22:50Z</time>
      </trkpt>
      <trkpt lat="44.27077" lon="3.41528">
        <ele>938.86</ele>
        <time>2013-01-06T11:23:19Z</time>
      </trkpt>
      <trkpt lat="44.27078" lon="3.41524">
        <ele>939.83</ele>
        <time>2013-01-06T11:23:55Z</time>
      </trkpt>
      <trkpt lat="44.27076" lon="3.41521">
        <ele>939.83</ele>
        <time>2013-01-06T11:24:22Z</time>
      </trkpt>
      <trkpt lat="44.27078" lon="3.41526">
        <ele>939.83</ele>
        <time>2013-01-06T11:24:48Z</time>
      </trkpt>
      <trkpt lat="44.27079" lon="3.41529">
        <ele>940.31</ele>
        <time>2013-01-06T11:25:12Z</time>
      </trkpt>
      <trkpt lat="44.27081" lon="3.41528">
        <ele>940.31</ele>
        <time>2013-01-06T11:25:45Z</time>
      </trkpt>
      <trkpt lat="44.2708" lon="3.41527">
        <ele>940.31</ele>
        <time>2013-01-06T11:26:09Z</time>
      </trkpt>
      <trkpt lat="44.2708" lon="3.4154">
        <ele>940.31</ele>
        <time>2013-01-06T11:26:45Z</time>
      </trkpt>
      <trkpt lat="44.27082" lon="3.41533">
        <ele>940.79</ele>
        <time>2013-01-06T11:27:09Z</time>
      </trkpt>
      <trkpt lat="44.27085" lon="3.41532">
        <ele>941.27</ele>
        <time>2013-01-06T11:27:44Z</time>
      </trkpt>
      <trkpt lat="44.27082" lon="3.41535">
        <ele>941.27</ele>
        <time>2013-01-06T11:28:11Z</time>
      </trkpt>
      <trkpt lat="44.27084" lon="3.41527">
        <ele>940.79</ele>
        <time>2013-01-06T11:28:37Z</time>
      </trkpt>
      <trkpt lat="44.27084" lon="3.4153">
        <ele>941.27</ele>
        <time>2013-01-06T11:29:05Z</time>
      </trkpt>
      <trkpt lat="44.27084" lon="3.41528">
        <ele>941.27</ele>
        <time>2013-01-06T11:29:28Z</time>
      </trkpt>
      <trkpt lat="44.27082" lon="3.41526">
        <ele>941.75</ele>
        <time>2013-01-06T11:30:04Z</time>
      </trkpt>
      <trkpt lat="44.2708" lon="3.41527">
        <ele>942.23</ele>
        <time>2013-01-06T11:30:33Z</time>
      </trkpt>
      <trkpt lat="44.27082" lon="3.41528">
        <ele>942.23</ele>
        <time>2013-01-06T11:30:56Z</time>
      </trkpt>
      <trkpt lat="44.27084" lon="3.41519">
        <ele>942.23</ele>
        <time>2013-01-06T11:31:33Z</time>
      </trkpt>
      <trkpt lat="44.27086" lon="3.41519">
        <ele>941.75</ele>
        <time>2013-01-06T11:32:21Z</time>
      </trkpt>
      <trkpt lat="44.27084" lon="3.4152">
        <ele>941.75</ele>
        <time>2013-01-06T11:32:52Z</time>
      </trkpt>
      <trkpt lat="44.27087" lon="3.41522">
        <ele>941.75</ele>
        <time>2013-01-06T11:33:31Z</time>
      </trkpt>
      <trkpt lat="44.2708" lon="3.41525">
        <ele>941.75</ele>
        <time>2013-01-06T11:34:01Z</time>
      </trkpt>
      <trkpt lat="44.27079" lon="3.41528">
        <ele>941.75</ele>
        <time>2013-01-06T11:34:32Z</time>
      </trkpt>
      <trkpt lat="44.27078" lon="3.4153">
        <ele>941.75</ele>
        <time>2013-01-06T11:35:04Z</time>
      </trkpt>
      <trkpt lat="44.2708" lon="3.41521">
        <ele>942.23</ele>
        <time>2013-01-06T11:35:39Z</time>
      </trkpt>
      <trkpt lat="44.27083" lon="3.41521">
        <ele>942.23</ele>
        <time>2013-01-06T11:36:26Z</time>
      </trkpt>
      <trkpt lat="44.27087" lon="3.41519">
        <ele>942.23</ele>
        <time>2013-01-06T11:37:11Z</time>
      </trkpt>
      <trkpt lat="44.27084" lon="3.41521">
        <ele>942.23</ele>
        <time>2013-01-06T11:37:47Z</time>
      </trkpt>
      <trkpt lat="44.2708" lon="3.41532">
        <ele>942.23</ele>
        <time>2013-01-06T11:38:11Z</time>
      </trkpt>
      <trkpt lat="44.2708" lon="3.4153">
        <ele>942.23</ele>
        <time>2013-01-06T11:38:34Z</time>
      </trkpt>
      <trkpt lat="44.27082" lon="3.41531">
        <ele>942.71</ele>
        <time>2013-01-06T11:39:14Z</time>
      </trkpt>
      <trkpt lat="44.27082" lon="3.4153">
        <ele>943.19</ele>
        <time>2013-01-06T11:40:01Z</time>
      </trkpt>
      <trkpt lat="44.27079" lon="3.41527">
        <ele>944.15</ele>
        <time>2013-01-06T11:40:45Z</time>
      </trkpt>
      <trkpt lat="44.27079" lon="3.41531">
        <ele>943.67</ele>
        <time>2013-01-06T11:41:09Z</time>
      </trkpt>
      <trkpt lat="44.27079" lon="3.41529">
        <ele>943.19</ele>
        <time>2013-01-06T11:41:36Z</time>
      </trkpt>
      <trkpt lat="44.27078" lon="3.4153">
        <ele>943.67</ele>
        <time>2013-01-06T11:42:00Z</time>
      </trkpt>
      <trkpt lat="44.27079" lon="3.41527">
        <ele>943.67</ele>
        <time>2013-01-06T11:42:22Z</time>
      </trkpt>
      <trkpt lat="44.27079" lon="3.41531">
        <ele>943.67</ele>
        <time>2013-01-06T11:42:44Z</time>
      </trkpt>
      <trkpt lat="44.2708" lon="3.41534">
        <ele>944.15</ele>
        <time>2013-01-06T11:43:02Z</time>
      </trkpt>
      <trkpt lat="44.2708" lon="3.41538">
        <ele>943.67</ele>
        <time>2013-01-06T11:43:27Z</time>
      </trkpt>
      <trkpt lat="44.27078" lon="3.41531">
        <ele>944.15</ele>
        <time>2013-01-06T11:43:52Z</time>
      </trkpt>
      <trkpt lat="44.27079" lon="3.41531">
        <ele>943.67</ele>
        <time>2013-01-06T11:44:12Z</time>
      </trkpt>
      <trkpt lat="44.27078" lon="3.41532">
        <ele>943.67</ele>
        <time>2013-01-06T11:44:49Z</time>
      </trkpt>
      <trkpt lat="44.27078" lon="3.41531">
        <ele>943.67</ele>
        <time>2013-01-06T11:45:11Z</time>
      </trkpt>
      <trkpt lat="44.27077" lon="3.41532">
        <ele>943.67</ele>
        <time>2013-01-06T11:45:38Z</time>
      </trkpt>
      <trkpt lat="44.27079" lon="3.41522">
        <ele>944.15</ele>
        <time>2013-01-06T11:46:05Z</time>
      </trkpt>
      <trkpt lat="44.27078" lon="3.41528">
        <ele>944.63</ele>
        <time>2013-01-06T11:46:40Z</time>
      </trkpt>
      <trkpt lat="44.27077" lon="3.41523">
        <ele>945.11</ele>
        <time>2013-01-06T11:47:00Z</time>
      </trkpt>
      <trkpt lat="44.27077" lon="3.41529">
        <ele>944.63</ele>
        <time>2013-01-06T11:47:32Z</time>
      </trkpt>
      <trkpt lat="44.27077" lon="3.41527">
        <ele>945.11</ele>
        <time>2013-01-06T11:47:51Z</time>
      </trkpt>
      <trkpt lat="44.27079" lon="3.41527">
        <ele>945.11</ele>
        <time>2013-01-06T11:48:21Z</time>
      </trkpt>
      <trkpt lat="44.27079" lon="3.41529">
        <ele>945.11</ele>
        <time>2013-01-06T11:48:47Z</time>
      </trkpt>
      <trkpt lat="44.2708" lon="3.41528">
        <ele>945.59</ele>
        <time>2013-01-06T11:49:15Z</time>
      </trkpt>
      <trkpt lat="44.27077" lon="3.41528">
        <ele>945.11</ele>
        <time>2013-01-06T11:49:43Z</time>
      </trkpt>
      <trkpt lat="44.27079" lon="3.41535">
        <ele>945.11</ele>
        <time>2013-01-06T11:50:18Z</time>
      </trkpt>
      <trkpt lat="44.27079" lon="3.41535">
        <ele>945.59</ele>
        <time>2013-01-06T11:50:47Z</time>
      </trkpt>
      <trkpt lat="44.27082" lon="3.41537">
        <ele>945.11</ele>
        <time>2013-01-06T11:51:08Z</time>
      </trkpt>
      <trkpt lat="44.27083" lon="3.41535">
        <ele>945.59</ele>
        <time>2013-01-06T11:51:29Z</time>
      </trkpt>
      <trkpt lat="44.27085" lon="3.41537">
        <ele>947.04</ele>
        <time>2013-01-06T11:51:59Z</time>
      </trkpt>
      <trkpt lat="44.27079" lon="3.41533">
        <ele>947.04</ele>
        <time>2013-01-06T11:52:17Z</time>
      </trkpt>
      <trkpt lat="44.27078" lon="3.41532">
        <ele>947.04</ele>
        <time>2013-01-06T11:52:43Z</time>
      </trkpt>
      <trkpt lat="44.27076" lon="3.41534">
        <ele>946.56</ele>
        <time>2013-01-06T11:53:15Z</time>
      </trkpt>
      <trkpt lat="44.27079" lon="3.41532">
        <ele>947.04</ele>
        <time>2013-01-06T11:53:42Z</time>
      </trkpt>
      <trkpt lat="44.27076" lon="3.41533">
        <ele>947.52</ele>
        <time>2013-01-06T11:54:10Z</time>
      </trkpt>
      <trkpt lat="44.27076" lon="3.41536">
        <ele>947.52</ele>
        <time>2013-01-06T11:54:42Z</time>
      </trkpt>
      <trkpt lat="44.27074" lon="3.41536">
        <ele>947.04</ele>
        <time>2013-01-06T11:55:05Z</time>
      </trkpt>
      <trkpt lat="44.27077" lon="3.41534">
        <ele>947.52</ele>
        <time>2013-01-06T11:55:31Z</time>
      </trkpt>
      <trkpt lat="44.27077" lon="3.41534">
        <ele>947.52</ele>
        <time>2013-01-06T11:55:55Z</time>
      </trkpt>
      <trkpt lat="44.27075" lon="3.41534">
        <ele>947.52</ele>
        <time>2013-01-06T11:56:20Z</time>
      </trkpt>
      <trkpt lat="44.27075" lon="3.41534">
        <ele>947.52</ele>
        <time>2013-01-06T11:56:43Z</time>
      </trkpt>
      <trkpt lat="44.27078" lon="3.41535">
        <ele>948.48</ele>
        <time>2013-01-06T11:57:08Z</time>
      </trkpt>
      <trkpt lat="44.2708" lon="3.41527">
        <ele>948</ele>
        <time>2013-01-06T11:57:35Z</time>
      </trkpt>
      <trkpt lat="44.27078" lon="3.4153">
        <ele>948.48</ele>
        <time>2013-01-06T11:57:58Z</time>
      </trkpt>
      <trkpt lat="44.27078" lon="3.41531">
        <ele>945.59</ele>
        <time>2013-01-06T11:58:01Z</time>
      </trkpt>
      <trkpt lat="44.27078" lon="3.4153">
        <ele>951.36</ele>
        <time>2013-01-06T11:58:02Z</time>
      </trkpt>
      <trkpt lat="44.27077" lon="3.4153">
        <ele>950.4</ele>
        <time>2013-01-06T11:58:03Z</time>
      </trkpt>
      <trkpt lat="44.27077" lon="3.4153">
        <ele>948</ele>
        <time>2013-01-06T11:58:05Z</time>
      </trkpt>
      <trkpt lat="44.27075" lon="3.41533">
        <ele>948.48</ele>
        <time>2013-01-06T11:58:37Z</time>
      </trkpt>
      <trkpt lat="44.27073" lon="3.41536">
        <ele>947.04</ele>
        <time>2013-01-06T11:58:52Z</time>
      </trkpt>
      <trkpt lat="44.2708" lon="3.41527">
        <ele>948</ele>
        <time>2013-01-06T11:59:08Z</time>
      </trkpt>
      <trkpt lat="44.2708" lon="3.41527">
        <ele>948</ele>
        <time>2013-01-06T11:59:26Z</time>
      </trkpt>
      <trkpt lat="44.27075" lon="3.41528">
        <ele>948</ele>
        <time>2013-01-06T11:59:52Z</time>
      </trkpt>
      <trkpt lat="44.27074" lon="3.41527">
        <ele>948</ele>
        <time>2013-01-06T12:00:17Z</time>
      </trkpt>
      <trkpt lat="44.27078" lon="3.41526">
        <ele>948</ele>
        <time>2013-01-06T12:00:44Z</time>
      </trkpt>
      <trkpt lat="44.27077" lon="3.41531">
        <ele>948.96</ele>
        <time>2013-01-06T12:01:14Z</time>
      </trkpt>
      <trkpt lat="44.27077" lon="3.41528">
        <ele>949.44</ele>
        <time>2013-01-06T12:01:44Z</time>
      </trkpt>
      <trkpt lat="44.27078" lon="3.41527">
        <ele>948.96</ele>
        <time>2013-01-06T12:02:08Z</time>
      </trkpt>
      <trkpt lat="44.27079" lon="3.41527">
        <ele>948.96</ele>
        <time>2013-01-06T12:02:36Z</time>
      </trkpt>
      <trkpt lat="44.27077" lon="3.41527">
        <ele>948.96</ele>
        <time>2013-01-06T12:03:01Z</time>
      </trkpt>
      <trkpt lat="44.27078" lon="3.4153">
        <ele>948.96</ele>
        <time>2013-01-06T12:03:20Z</time>
      </trkpt>
      <trkpt lat="44.27079" lon="3.41529">
        <ele>945.11</ele>
        <time>2013-01-06T12:03:35Z</time>
      </trkpt>
      <trkpt lat="44.27079" lon="3.41529">
        <ele>950.88</ele>
        <time>2013-01-06T12:03:36Z</time>
      </trkpt>
      <trkpt lat="44.27079" lon="3.4153">
        <ele>948.96</ele>
        <time>2013-01-06T12:03:39Z</time>
      </trkpt>
      <trkpt lat="44.27076" lon="3.4153">
        <ele>948.96</ele>
        <time>2013-01-06T12:04:00Z</time>
      </trkpt>
      <trkpt lat="44.27076" lon="3.41533">
        <ele>952.32</ele>
        <time>2013-01-06T12:04:26Z</time>
      </trkpt>
      <trkpt lat="44.27076" lon="3.41532">
        <ele>948.96</ele>
        <time>2013-01-06T12:04:27Z</time>
      </trkpt>
      <trkpt lat="44.27076" lon="3.4153">
        <ele>948.96</ele>
        <time>2013-01-06T12:04:50Z</time>
      </trkpt>
      <trkpt lat="44.27078" lon="3.41531">
        <ele>948.96</ele>
        <time>2013-01-06T12:05:12Z</time>
      </trkpt>
      <trkpt lat="44.27077" lon="3.41531">
        <ele>948.96</ele>
        <time>2013-01-06T12:05:36Z</time>
      </trkpt>
      <trkpt lat="44.27077" lon="3.4153">
        <ele>948.96</ele>
        <time>2013-01-06T12:06:03Z</time>
      </trkpt>
      <trkpt lat="44.27078" lon="3.4153">
        <ele>949.44</ele>
        <time>2013-01-06T12:06:21Z</time>
      </trkpt>
      <trkpt lat="44.27081" lon="3.41525">
        <ele>948.96</ele>
        <time>2013-01-06T12:06:39Z</time>
      </trkpt>
      <trkpt lat="44.27081" lon="3.41525">
        <ele>950.88</ele>
        <time>2013-01-06T12:06:52Z</time>
      </trkpt>
      <trkpt lat="44.2708" lon="3.41527">
        <ele>950.4</ele>
        <time>2013-01-06T12:07:12Z</time>
      </trkpt>
      <trkpt lat="44.2708" lon="3.41526">
        <ele>949.44</ele>
        <time>2013-01-06T12:07:35Z</time>
      </trkpt>
      <trkpt lat="44.27083" lon="3.41523">
        <ele>948.96</ele>
        <time>2013-01-06T12:07:57Z</time>
      </trkpt>
      <trkpt lat="44.27083" lon="3.41532">
        <ele>949.92</ele>
        <time>2013-01-06T12:08:13Z</time>
      </trkpt>
      <trkpt lat="44.2708" lon="3.41531">
        <ele>949.92</ele>
        <time>2013-01-06T12:08:25Z</time>
      </trkpt>
      <trkpt lat="44.27079" lon="3.4153">
        <ele>949.92</ele>
        <time>2013-01-06T12:08:26Z</time>
      </trkpt>
      <trkpt lat="44.27078" lon="3.41528">
        <ele>949.92</ele>
        <time>2013-01-06T12:08:28Z</time>
      </trkpt>
      <trkpt lat="44.2708" lon="3.41529">
        <ele>949.92</ele>
        <time>2013-01-06T12:08:30Z</time>
      </trkpt>
      <trkpt lat="44.27084" lon="3.41534">
        <ele>949.44</ele>
        <time>2013-01-06T12:08:35Z</time>
      </trkpt>
      <trkpt lat="44.27084" lon="3.41537">
        <ele>949.44</ele>
        <time>2013-01-06T12:08:37Z</time>
      </trkpt>
      <trkpt lat="44.27075" lon="3.41559">
        <ele>950.4</ele>
        <time>2013-01-06T12:08:53Z</time>
      </trkpt>
      <trkpt lat="44.27063" lon="3.41575">
        <ele>952.8</ele>
        <time>2013-01-06T12:09:09Z</time>
      </trkpt>
      <trkpt lat="44.2706" lon="3.41578">
        <ele>953.28</ele>
        <time>2013-01-06T12:09:13Z</time>
      </trkpt>
      <trkpt lat="44.27052" lon="3.4159">
        <ele>954.25</ele>
        <time>2013-01-06T12:09:24Z</time>
      </trkpt>
      <trkpt lat="44.27038" lon="3.41606">
        <ele>956.17</ele>
        <time>2013-01-06T12:09:39Z</time>
      </trkpt>
      <trkpt lat="44.27022" lon="3.41622">
        <ele>957.61</ele>
        <time>2013-01-06T12:09:56Z</time>
      </trkpt>
      <trkpt lat="44.27011" lon="3.41642">
        <ele>958.57</ele>
        <time>2013-01-06T12:10:11Z</time>
      </trkpt>
      <trkpt lat="44.26995" lon="3.41667">
        <ele>960.01</ele>
        <time>2013-01-06T12:10:29Z</time>
      </trkpt>
      <trkpt lat="44.26976" lon="3.41677">
        <ele>962.42</ele>
        <time>2013-01-06T12:10:47Z</time>
      </trkpt>
      <trkpt lat="44.26961" lon="3.41681">
        <ele>964.34</ele>
        <time>2013-01-06T12:11:02Z</time>
      </trkpt>
      <trkpt lat="44.26946" lon="3.41684">
        <ele>966.26</ele>
        <time>2013-01-06T12:11:15Z</time>
      </trkpt>
      <trkpt lat="44.26929" lon="3.41689">
        <ele>968.18</ele>
        <time>2013-01-06T12:11:31Z</time>
      </trkpt>
      <trkpt lat="44.26923" lon="3.41694">
        <ele>968.67</ele>
        <time>2013-01-06T12:11:37Z</time>
      </trkpt>
      <trkpt lat="44.26906" lon="3.41707">
        <ele>970.11</ele>
        <time>2013-01-06T12:11:54Z</time>
      </trkpt>
      <trkpt lat="44.26894" lon="3.41722">
        <ele>972.03</ele>
        <time>2013-01-06T12:12:09Z</time>
      </trkpt>
      <trkpt lat="44.26883" lon="3.41732">
        <ele>973.95</ele>
        <time>2013-01-06T12:12:23Z</time>
      </trkpt>
      <trkpt lat="44.26872" lon="3.41741">
        <ele>976.36</ele>
        <time>2013-01-06T12:12:36Z</time>
      </trkpt>
      <trkpt lat="44.26857" lon="3.41747">
        <ele>977.8</ele>
        <time>2013-01-06T12:12:52Z</time>
      </trkpt>
      <trkpt lat="44.26845" lon="3.41763">
        <ele>979.24</ele>
        <time>2013-01-06T12:13:07Z</time>
      </trkpt>
      <trkpt lat="44.26834" lon="3.41781">
        <ele>981.16</ele>
        <time>2013-01-06T12:13:22Z</time>
      </trkpt>
      <trkpt lat="44.26831" lon="3.41788">
        <ele>980.68</ele>
        <time>2013-01-06T12:13:27Z</time>
      </trkpt>
      <trkpt lat="44.26828" lon="3.41792">
        <ele>982.12</ele>
        <time>2013-01-06T12:13:30Z</time>
      </trkpt>
      <trkpt lat="44.26819" lon="3.41811">
        <ele>982.6</ele>
        <time>2013-01-06T12:13:44Z</time>
      </trkpt>
      <trkpt lat="44.26811" lon="3.41828">
        <ele>984.05</ele>
        <time>2013-01-06T12:13:57Z</time>
      </trkpt>
      <trkpt lat="44.268" lon="3.41844">
        <ele>985.97</ele>
        <time>2013-01-06T12:14:11Z</time>
      </trkpt>
      <trkpt lat="44.26787" lon="3.41856">
        <ele>987.89</ele>
        <time>2013-01-06T12:14:26Z</time>
      </trkpt>
      <trkpt lat="44.26776" lon="3.41868">
        <ele>989.81</ele>
        <time>2013-01-06T12:14:39Z</time>
      </trkpt>
      <trkpt lat="44.26762" lon="3.41879">
        <ele>992.22</ele>
        <time>2013-01-06T12:14:53Z</time>
      </trkpt>
      <trkpt lat="44.26751" lon="3.4189">
        <ele>994.14</ele>
        <time>2013-01-06T12:15:05Z</time>
      </trkpt>
      <trkpt lat="44.26735" lon="3.41905">
        <ele>995.58</ele>
        <time>2013-01-06T12:15:19Z</time>
      </trkpt>
      <trkpt lat="44.26729" lon="3.41911">
        <ele>996.54</ele>
        <time>2013-01-06T12:15:25Z</time>
      </trkpt>
      <trkpt lat="44.26713" lon="3.41929">
        <ele>997.51</ele>
        <time>2013-01-06T12:15:41Z</time>
      </trkpt>
      <trkpt lat="44.26702" lon="3.4194">
        <ele>999.43</ele>
        <time>2013-01-06T12:15:55Z</time>
      </trkpt>
      <trkpt lat="44.26691" lon="3.4195">
        <ele>1000.87</ele>
        <time>2013-01-06T12:16:08Z</time>
      </trkpt>
      <trkpt lat="44.26688" lon="3.41953">
        <ele>1000.87</ele>
        <time>2013-01-06T12:16:12Z</time>
      </trkpt>
      <trkpt lat="44.26672" lon="3.41969">
        <ele>1002.31</ele>
        <time>2013-01-06T12:16:28Z</time>
      </trkpt>
      <trkpt lat="44.26657" lon="3.41983">
        <ele>1003.75</ele>
        <time>2013-01-06T12:16:44Z</time>
      </trkpt>
      <trkpt lat="44.26645" lon="3.41992">
        <ele>1005.2</ele>
        <time>2013-01-06T12:16:56Z</time>
      </trkpt>
      <trkpt lat="44.26636" lon="3.42001">
        <ele>1005.68</ele>
        <time>2013-01-06T12:17:05Z</time>
      </trkpt>
      <trkpt lat="44.26631" lon="3.42005">
        <ele>1005.2</ele>
        <time>2013-01-06T12:17:10Z</time>
      </trkpt>
      <trkpt lat="44.26616" lon="3.42017">
        <ele>1006.64</ele>
        <time>2013-01-06T12:17:24Z</time>
      </trkpt>
      <trkpt lat="44.26598" lon="3.42032">
        <ele>1007.6</ele>
        <time>2013-01-06T12:17:41Z</time>
      </trkpt>
      <trkpt lat="44.26585" lon="3.4204">
        <ele>1009.04</ele>
        <time>2013-01-06T12:17:55Z</time>
      </trkpt>
      <trkpt lat="44.26569" lon="3.42044">
        <ele>1010.48</ele>
        <time>2013-01-06T12:18:10Z</time>
      </trkpt>
      <trkpt lat="44.26547" lon="3.42041">
        <ele>1011.44</ele>
        <time>2013-01-06T12:18:31Z</time>
      </trkpt>
      <trkpt lat="44.26542" lon="3.42043">
        <ele>1011.93</ele>
        <time>2013-01-06T12:18:44Z</time>
      </trkpt>
      <trkpt lat="44.26527" lon="3.42042">
        <ele>1012.41</ele>
        <time>2013-01-06T12:18:58Z</time>
      </trkpt>
      <trkpt lat="44.26513" lon="3.4205">
        <ele>1015.29</ele>
        <time>2013-01-06T12:19:14Z</time>
      </trkpt>
      <trkpt lat="44.2651" lon="3.42052">
        <ele>1015.29</ele>
        <time>2013-01-06T12:19:17Z</time>
      </trkpt>
      <trkpt lat="44.26507" lon="3.42056">
        <ele>1017.21</ele>
        <time>2013-01-06T12:19:22Z</time>
      </trkpt>
      <trkpt lat="44.26495" lon="3.42067">
        <ele>1018.65</ele>
        <time>2013-01-06T12:19:36Z</time>
      </trkpt>
      <trkpt lat="44.26493" lon="3.42074">
        <ele>1020.1</ele>
        <time>2013-01-06T12:19:48Z</time>
      </trkpt>
      <trkpt lat="44.26494" lon="3.42073">
        <ele>1019.62</ele>
        <time>2013-01-06T12:20:06Z</time>
      </trkpt>
      <trkpt lat="44.26492" lon="3.42076">
        <ele>1020.1</ele>
        <time>2013-01-06T12:20:21Z</time>
      </trkpt>
      <trkpt lat="44.26493" lon="3.42077">
        <ele>1020.58</ele>
        <time>2013-01-06T12:20:36Z</time>
      </trkpt>
      <trkpt lat="44.26494" lon="3.42074">
        <ele>1021.06</ele>
        <time>2013-01-06T12:20:59Z</time>
      </trkpt>
      <trkpt lat="44.26491" lon="3.42073">
        <ele>1020.58</ele>
        <time>2013-01-06T12:21:20Z</time>
      </trkpt>
      <trkpt lat="44.26492" lon="3.42072">
        <ele>1020.58</ele>
        <time>2013-01-06T12:21:48Z</time>
      </trkpt>
      <trkpt lat="44.26491" lon="3.42073">
        <ele>1017.21</ele>
        <time>2013-01-06T12:21:55Z</time>
      </trkpt>
      <trkpt lat="44.26491" lon="3.42073">
        <ele>1020.58</ele>
        <time>2013-01-06T12:21:56Z</time>
      </trkpt>
      <trkpt lat="44.26489" lon="3.42067">
        <ele>1020.58</ele>
        <time>2013-01-06T12:22:22Z</time>
      </trkpt>
      <trkpt lat="44.26497" lon="3.42074">
        <ele>1019.62</ele>
        <time>2013-01-06T12:22:44Z</time>
      </trkpt>
      <trkpt lat="44.26495" lon="3.42073">
        <ele>1020.1</ele>
        <time>2013-01-06T12:23:04Z</time>
      </trkpt>
      <trkpt lat="44.2649" lon="3.42078">
        <ele>1019.62</ele>
        <time>2013-01-06T12:23:23Z</time>
      </trkpt>
      <trkpt lat="44.26485" lon="3.42091">
        <ele>1021.54</ele>
        <time>2013-01-06T12:23:42Z</time>
      </trkpt>
      <trkpt lat="44.26478" lon="3.42108">
        <ele>1022.98</ele>
        <time>2013-01-06T12:23:55Z</time>
      </trkpt>
      <trkpt lat="44.26473" lon="3.42126">
        <ele>1024.42</ele>
        <time>2013-01-06T12:24:07Z</time>
      </trkpt>
      <trkpt lat="44.26469" lon="3.42138">
        <ele>1024.9</ele>
        <time>2013-01-06T12:24:15Z</time>
      </trkpt>
      <trkpt lat="44.26464" lon="3.42153">
        <ele>1027.31</ele>
        <time>2013-01-06T12:24:26Z</time>
      </trkpt>
      <trkpt lat="44.26457" lon="3.42172">
        <ele>1029.23</ele>
        <time>2013-01-06T12:24:40Z</time>
      </trkpt>
      <trkpt lat="44.26447" lon="3.42186">
        <ele>1031.63</ele>
        <time>2013-01-06T12:24:56Z</time>
      </trkpt>
      <trkpt lat="44.26437" lon="3.42202">
        <ele>1032.59</ele>
        <time>2013-01-06T12:25:10Z</time>
      </trkpt>
      <trkpt lat="44.2643" lon="3.42215">
        <ele>1033.55</ele>
        <time>2013-01-06T12:25:23Z</time>
      </trkpt>
      <trkpt lat="44.2642" lon="3.42231">
        <ele>1035.48</ele>
        <time>2013-01-06T12:25:37Z</time>
      </trkpt>
      <trkpt lat="44.26411" lon="3.42242">
        <ele>1036.92</ele>
        <time>2013-01-06T12:25:50Z</time>
      </trkpt>
      <trkpt lat="44.26405" lon="3.42259">
        <ele>1038.36</ele>
        <time>2013-01-06T12:26:05Z</time>
      </trkpt>
      <trkpt lat="44.26394" lon="3.42277">
        <ele>1039.8</ele>
        <time>2013-01-06T12:26:20Z</time>
      </trkpt>
      <trkpt lat="44.26382" lon="3.42296">
        <ele>1041.25</ele>
        <time>2013-01-06T12:26:36Z</time>
      </trkpt>
      <trkpt lat="44.26371" lon="3.42316">
        <ele>1041.25</ele>
        <time>2013-01-06T12:26:53Z</time>
      </trkpt>
      <trkpt lat="44.2636" lon="3.42332">
        <ele>1041.25</ele>
        <time>2013-01-06T12:27:09Z</time>
      </trkpt>
      <trkpt lat="44.2635" lon="3.4235">
        <ele>1041.25</ele>
        <time>2013-01-06T12:27:24Z</time>
      </trkpt>
      <trkpt lat="44.2634" lon="3.42372">
        <ele>1041.73</ele>
        <time>2013-01-06T12:27:39Z</time>
      </trkpt>
      <trkpt lat="44.26332" lon="3.42394">
        <ele>1043.65</ele>
        <time>2013-01-06T12:27:54Z</time>
      </trkpt>
      <trkpt lat="44.2632" lon="3.42409">
        <ele>1046.05</ele>
        <time>2013-01-06T12:28:08Z</time>
      </trkpt>
      <trkpt lat="44.2631" lon="3.42424">
        <ele>1047.97</ele>
        <time>2013-01-06T12:28:21Z</time>
      </trkpt>
      <trkpt lat="44.26299" lon="3.42439">
        <ele>1049.9</ele>
        <time>2013-01-06T12:28:36Z</time>
      </trkpt>
      <trkpt lat="44.26287" lon="3.42458">
        <ele>1051.34</ele>
        <time>2013-01-06T12:28:50Z</time>
      </trkpt>
      <trkpt lat="44.26271" lon="3.42477">
        <ele>1052.3</ele>
        <time>2013-01-06T12:29:06Z</time>
      </trkpt>
      <trkpt lat="44.26255" lon="3.42496">
        <ele>1053.74</ele>
        <time>2013-01-06T12:29:22Z</time>
      </trkpt>
      <trkpt lat="44.26243" lon="3.42511">
        <ele>1054.22</ele>
        <time>2013-01-06T12:29:37Z</time>
      </trkpt>
      <trkpt lat="44.26229" lon="3.42525">
        <ele>1055.18</ele>
        <time>2013-01-06T12:29:52Z</time>
      </trkpt>
      <trkpt lat="44.26215" lon="3.42541">
        <ele>1055.67</ele>
        <time>2013-01-06T12:30:07Z</time>
      </trkpt>
      <trkpt lat="44.26205" lon="3.42551">
        <ele>1056.15</ele>
        <time>2013-01-06T12:30:19Z</time>
      </trkpt>
      <trkpt lat="44.26188" lon="3.42564">
        <ele>1056.15</ele>
        <time>2013-01-06T12:30:35Z</time>
      </trkpt>
      <trkpt lat="44.26167" lon="3.42578">
        <ele>1056.63</ele>
        <time>2013-01-06T12:30:53Z</time>
      </trkpt>
      <trkpt lat="44.26158" lon="3.42581">
        <ele>1057.59</ele>
        <time>2013-01-06T12:31:08Z</time>
      </trkpt>
      <trkpt lat="44.26139" lon="3.42595">
        <ele>1057.11</ele>
        <time>2013-01-06T12:31:24Z</time>
      </trkpt>
      <trkpt lat="44.26119" lon="3.4261">
        <ele>1056.63</ele>
        <time>2013-01-06T12:31:41Z</time>
      </trkpt>
      <trkpt lat="44.26099" lon="3.4262">
        <ele>1057.11</ele>
        <time>2013-01-06T12:32:01Z</time>
      </trkpt>
      <trkpt lat="44.26089" lon="3.42625">
        <ele>1057.11</ele>
        <time>2013-01-06T12:32:21Z</time>
      </trkpt>
      <trkpt lat="44.26065" lon="3.42631">
        <ele>1056.63</ele>
        <time>2013-01-06T12:32:41Z</time>
      </trkpt>
      <trkpt lat="44.26044" lon="3.4264">
        <ele>1056.63</ele>
        <time>2013-01-06T12:33:00Z</time>
      </trkpt>
      <trkpt lat="44.26034" lon="3.42647">
        <ele>1056.15</ele>
        <time>2013-01-06T12:33:13Z</time>
      </trkpt>
      <trkpt lat="44.2602" lon="3.42658">
        <ele>1056.15</ele>
        <time>2013-01-06T12:33:27Z</time>
      </trkpt>
      <trkpt lat="44.26016" lon="3.42661">
        <ele>1055.67</ele>
        <time>2013-01-06T12:33:33Z</time>
      </trkpt>
      <trkpt lat="44.26006" lon="3.42662">
        <ele>1057.11</ele>
        <time>2013-01-06T12:33:48Z</time>
      </trkpt>
      <trkpt lat="44.25991" lon="3.4267">
        <ele>1056.15</ele>
        <time>2013-01-06T12:34:02Z</time>
      </trkpt>
      <trkpt lat="44.25971" lon="3.42668">
        <ele>1055.67</ele>
        <time>2013-01-06T12:34:18Z</time>
      </trkpt>
      <trkpt lat="44.25949" lon="3.42672">
        <ele>1056.63</ele>
        <time>2013-01-06T12:34:37Z</time>
      </trkpt>
      <trkpt lat="44.25933" lon="3.42678">
        <ele>1056.15</ele>
        <time>2013-01-06T12:34:52Z</time>
      </trkpt>
      <trkpt lat="44.2591" lon="3.42686">
        <ele>1056.15</ele>
        <time>2013-01-06T12:35:10Z</time>
      </trkpt>
      <trkpt lat="44.2589" lon="3.42694">
        <ele>1055.67</ele>
        <time>2013-01-06T12:35:27Z</time>
      </trkpt>
      <trkpt lat="44.25869" lon="3.42696">
        <ele>1054.7</ele>
        <time>2013-01-06T12:35:44Z</time>
      </trkpt>
      <trkpt lat="44.25857" lon="3.42694">
        <ele>1054.7</ele>
        <time>2013-01-06T12:36:00Z</time>
      </trkpt>
      <trkpt lat="44.25845" lon="3.42689">
        <ele>1052.78</ele>
        <time>2013-01-06T12:36:12Z</time>
      </trkpt>
      <trkpt lat="44.25843" lon="3.4269">
        <ele>1053.26</ele>
        <time>2013-01-06T12:36:29Z</time>
      </trkpt>
      <trkpt lat="44.25836" lon="3.42688">
        <ele>1053.26</ele>
        <time>2013-01-06T12:36:36Z</time>
      </trkpt>
      <trkpt lat="44.25819" lon="3.42683">
        <ele>1052.3</ele>
        <time>2013-01-06T12:36:54Z</time>
      </trkpt>
      <trkpt lat="44.25792" lon="3.42678">
        <ele>1051.34</ele>
        <time>2013-01-06T12:37:14Z</time>
      </trkpt>
      <trkpt lat="44.25768" lon="3.4267">
        <ele>1050.38</ele>
        <time>2013-01-06T12:37:33Z</time>
      </trkpt>
      <trkpt lat="44.25763" lon="3.42667">
        <ele>1050.86</ele>
        <time>2013-01-06T12:37:49Z</time>
      </trkpt>
      <trkpt lat="44.25752" lon="3.42661">
        <ele>1050.38</ele>
        <time>2013-01-06T12:38:05Z</time>
      </trkpt>
      <trkpt lat="44.25755" lon="3.42658">
        <ele>1049.9</ele>
        <time>2013-01-06T12:38:20Z</time>
      </trkpt>
      <trkpt lat="44.25754" lon="3.42658">
        <ele>1049.9</ele>
        <time>2013-01-06T12:38:49Z</time>
      </trkpt>
      <trkpt lat="44.25744" lon="3.42657">
        <ele>1050.86</ele>
        <time>2013-01-06T12:39:08Z</time>
      </trkpt>
      <trkpt lat="44.25722" lon="3.42652">
        <ele>1052.3</ele>
        <time>2013-01-06T12:39:25Z</time>
      </trkpt>
      <trkpt lat="44.25711" lon="3.42648">
        <ele>1050.86</ele>
        <time>2013-01-06T12:39:41Z</time>
      </trkpt>
      <trkpt lat="44.25709" lon="3.42648">
        <ele>1050.38</ele>
        <time>2013-01-06T12:40:09Z</time>
      </trkpt>
      <trkpt lat="44.25708" lon="3.42648">
        <ele>1050.86</ele>
        <time>2013-01-06T12:40:15Z</time>
      </trkpt>
      <trkpt lat="44.25707" lon="3.42647">
        <ele>1051.34</ele>
        <time>2013-01-06T12:40:17Z</time>
      </trkpt>
      <trkpt lat="44.25702" lon="3.42651">
        <ele>1052.3</ele>
        <time>2013-01-06T12:40:32Z</time>
      </trkpt>
      <trkpt lat="44.25701" lon="3.42652">
        <ele>1051.82</ele>
        <time>2013-01-06T12:41:00Z</time>
      </trkpt>
      <trkpt lat="44.25675" lon="3.42644">
        <ele>1052.3</ele>
        <time>2013-01-06T12:41:18Z</time>
      </trkpt>
      <trkpt lat="44.25655" lon="3.42642">
        <ele>1055.67</ele>
        <time>2013-01-06T12:41:35Z</time>
      </trkpt>
      <trkpt lat="44.25635" lon="3.42637">
        <ele>1057.11</ele>
        <time>2013-01-06T12:41:52Z</time>
      </trkpt>
      <trkpt lat="44.25635" lon="3.42637">
        <ele>1057.11</ele>
        <time>2013-01-06T12:42:17Z</time>
      </trkpt>
      <trkpt lat="44.25635" lon="3.42638">
        <ele>1057.59</ele>
        <time>2013-01-06T12:42:26Z</time>
      </trkpt>
      <trkpt lat="44.25624" lon="3.42655">
        <ele>1058.55</ele>
        <time>2013-01-06T12:42:39Z</time>
      </trkpt>
      <trkpt lat="44.25621" lon="3.42668">
        <ele>1057.59</ele>
        <time>2013-01-06T12:42:46Z</time>
      </trkpt>
      <trkpt lat="44.25603" lon="3.42705">
        <ele>1057.11</ele>
        <time>2013-01-06T12:43:07Z</time>
      </trkpt>
      <trkpt lat="44.25581" lon="3.42724">
        <ele>1056.63</ele>
        <time>2013-01-06T12:43:27Z</time>
      </trkpt>
      <trkpt lat="44.25575" lon="3.42723">
        <ele>1056.63</ele>
        <time>2013-01-06T12:43:43Z</time>
      </trkpt>
      <trkpt lat="44.25565" lon="3.42724">
        <ele>1055.18</ele>
        <time>2013-01-06T12:44:00Z</time>
      </trkpt>
      <trkpt lat="44.25556" lon="3.42728">
        <ele>1054.7</ele>
        <time>2013-01-06T12:44:08Z</time>
      </trkpt>
      <trkpt lat="44.25549" lon="3.42729">
        <ele>1052.78</ele>
        <time>2013-01-06T12:44:16Z</time>
      </trkpt>
      <trkpt lat="44.2554" lon="3.4273">
        <ele>1051.82</ele>
        <time>2013-01-06T12:44:23Z</time>
      </trkpt>
      <trkpt lat="44.25522" lon="3.42738">
        <ele>1050.38</ele>
        <time>2013-01-06T12:44:38Z</time>
      </trkpt>
      <trkpt lat="44.25513" lon="3.4274">
        <ele>1048.45</ele>
        <time>2013-01-06T12:44:46Z</time>
      </trkpt>
      <trkpt lat="44.25508" lon="3.42737">
        <ele>1048.45</ele>
        <time>2013-01-06T12:44:50Z</time>
      </trkpt>
      <trkpt lat="44.25485" lon="3.42727">
        <ele>1045.09</ele>
        <time>2013-01-06T12:45:09Z</time>
      </trkpt>
      <trkpt lat="44.25463" lon="3.42719">
        <ele>1041.73</ele>
        <time>2013-01-06T12:45:28Z</time>
      </trkpt>
      <trkpt lat="44.25458" lon="3.42719">
        <ele>1040.76</ele>
        <time>2013-01-06T12:45:32Z</time>
      </trkpt>
      <trkpt lat="44.25449" lon="3.42714">
        <ele>1039.8</ele>
        <time>2013-01-06T12:45:39Z</time>
      </trkpt>
      <trkpt lat="44.2543" lon="3.42708">
        <ele>1036.44</ele>
        <time>2013-01-06T12:45:55Z</time>
      </trkpt>
      <trkpt lat="44.25411" lon="3.42698">
        <ele>1034.04</ele>
        <time>2013-01-06T12:46:11Z</time>
      </trkpt>
      <trkpt lat="44.25394" lon="3.42687">
        <ele>1031.15</ele>
        <time>2013-01-06T12:46:27Z</time>
      </trkpt>
      <trkpt lat="44.2538" lon="3.42677">
        <ele>1028.75</ele>
        <time>2013-01-06T12:46:40Z</time>
      </trkpt>
      <trkpt lat="44.25366" lon="3.42657">
        <ele>1025.86</ele>
        <time>2013-01-06T12:46:56Z</time>
      </trkpt>
      <trkpt lat="44.25361" lon="3.42657">
        <ele>1024.9</ele>
        <time>2013-01-06T12:47:00Z</time>
      </trkpt>
      <trkpt lat="44.25357" lon="3.42655">
        <ele>1023.94</ele>
        <time>2013-01-06T12:47:04Z</time>
      </trkpt>
      <trkpt lat="44.25333" lon="3.42655">
        <ele>1020.58</ele>
        <time>2013-01-06T12:47:21Z</time>
      </trkpt>
      <trkpt lat="44.25314" lon="3.42657">
        <ele>1017.69</ele>
        <time>2013-01-06T12:47:37Z</time>
      </trkpt>
      <trkpt lat="44.25294" lon="3.42668">
        <ele>1014.33</ele>
        <time>2013-01-06T12:47:54Z</time>
      </trkpt>
      <trkpt lat="44.25289" lon="3.42669">
        <ele>1013.85</ele>
        <time>2013-01-06T12:47:58Z</time>
      </trkpt>
      <trkpt lat="44.25278" lon="3.4267">
        <ele>1011.93</ele>
        <time>2013-01-06T12:48:09Z</time>
      </trkpt>
      <trkpt lat="44.25265" lon="3.42682">
        <ele>1010.48</ele>
        <time>2013-01-06T12:48:22Z</time>
      </trkpt>
      <trkpt lat="44.25258" lon="3.42684">
        <ele>1009.52</ele>
        <time>2013-01-06T12:48:29Z</time>
      </trkpt>
      <trkpt lat="44.25243" lon="3.42711">
        <ele>1008.08</ele>
        <time>2013-01-06T12:48:48Z</time>
      </trkpt>
      <trkpt lat="44.25227" lon="3.42719">
        <ele>1007.12</ele>
        <time>2013-01-06T12:49:01Z</time>
      </trkpt>
      <trkpt lat="44.25221" lon="3.42719">
        <ele>1006.64</ele>
        <time>2013-01-06T12:49:06Z</time>
      </trkpt>
      <trkpt lat="44.25204" lon="3.42724">
        <ele>1004.72</ele>
        <time>2013-01-06T12:49:24Z</time>
      </trkpt>
      <trkpt lat="44.25203" lon="3.42724">
        <ele>1005.2</ele>
        <time>2013-01-06T12:49:30Z</time>
      </trkpt>
      <trkpt lat="44.25206" lon="3.42693">
        <ele>1005.2</ele>
        <time>2013-01-06T12:49:49Z</time>
      </trkpt>
      <trkpt lat="44.25208" lon="3.42685">
        <ele>1005.68</ele>
        <time>2013-01-06T12:50:04Z</time>
      </trkpt>
      <trkpt lat="44.25211" lon="3.42685">
        <ele>1006.16</ele>
        <time>2013-01-06T12:50:17Z</time>
      </trkpt>
      <trkpt lat="44.25211" lon="3.42684">
        <ele>1006.16</ele>
        <time>2013-01-06T12:50:26Z</time>
      </trkpt>
      <trkpt lat="44.25218" lon="3.4268">
        <ele>1006.64</ele>
        <time>2013-01-06T12:50:39Z</time>
      </trkpt>
      <trkpt lat="44.25222" lon="3.42678">
        <ele>1006.64</ele>
        <time>2013-01-06T12:51:11Z</time>
      </trkpt>
      <trkpt lat="44.25212" lon="3.42679">
        <ele>1006.64</ele>
        <time>2013-01-06T12:51:26Z</time>
      </trkpt>
      <trkpt lat="44.25207" lon="3.42689">
        <ele>1005.2</ele>
        <time>2013-01-06T12:51:42Z</time>
      </trkpt>
      <trkpt lat="44.25207" lon="3.42691">
        <ele>1005.68</ele>
        <time>2013-01-06T12:52:05Z</time>
      </trkpt>
      <trkpt lat="44.25206" lon="3.42692">
        <ele>1005.2</ele>
        <time>2013-01-06T12:52:27Z</time>
      </trkpt>
      <trkpt lat="44.25207" lon="3.42689">
        <ele>1005.68</ele>
        <time>2013-01-06T12:52:46Z</time>
      </trkpt>
      <trkpt lat="44.25202" lon="3.42692">
        <ele>1005.2</ele>
        <time>2013-01-06T12:52:58Z</time>
      </trkpt>
      <trkpt lat="44.25199" lon="3.42698">
        <ele>1002.79</ele>
        <time>2013-01-06T12:53:12Z</time>
      </trkpt>
      <trkpt lat="44.25197" lon="3.42701">
        <ele>1002.79</ele>
        <time>2013-01-06T12:53:14Z</time>
      </trkpt>
      <trkpt lat="44.25185" lon="3.42729">
        <ele>1002.79</ele>
        <time>2013-01-06T12:53:35Z</time>
      </trkpt>
      <trkpt lat="44.25184" lon="3.42737">
        <ele>1003.75</ele>
        <time>2013-01-06T12:53:41Z</time>
      </trkpt>
      <trkpt lat="44.25182" lon="3.4274">
        <ele>1003.27</ele>
        <time>2013-01-06T12:53:44Z</time>
      </trkpt>
      <trkpt lat="44.25172" lon="3.42731">
        <ele>1003.27</ele>
        <time>2013-01-06T12:53:59Z</time>
      </trkpt>
      <trkpt lat="44.25159" lon="3.42726">
        <ele>1001.35</ele>
        <time>2013-01-06T12:54:12Z</time>
      </trkpt>
      <trkpt lat="44.25143" lon="3.42729">
        <ele>1000.39</ele>
        <time>2013-01-06T12:54:26Z</time>
      </trkpt>
      <trkpt lat="44.25131" lon="3.42733">
        <ele>999.91</ele>
        <time>2013-01-06T12:54:39Z</time>
      </trkpt>
      <trkpt lat="44.25116" lon="3.42733">
        <ele>997.99</ele>
        <time>2013-01-06T12:54:53Z</time>
      </trkpt>
      <trkpt lat="44.25098" lon="3.42728">
        <ele>996.54</ele>
        <time>2013-01-06T12:55:11Z</time>
      </trkpt>
      <trkpt lat="44.25077" lon="3.42716">
        <ele>994.62</ele>
        <time>2013-01-06T12:55:31Z</time>
      </trkpt>
      <trkpt lat="44.25063" lon="3.427">
        <ele>993.66</ele>
        <time>2013-01-06T12:55:48Z</time>
      </trkpt>
      <trkpt lat="44.25045" lon="3.42689">
        <ele>992.7</ele>
        <time>2013-01-06T12:56:05Z</time>
      </trkpt>
      <trkpt lat="44.25035" lon="3.42685">
        <ele>992.7</ele>
        <time>2013-01-06T12:56:14Z</time>
      </trkpt>
      <trkpt lat="44.25023" lon="3.42694">
        <ele>992.7</ele>
        <time>2013-01-06T12:56:28Z</time>
      </trkpt>
      <trkpt lat="44.25011" lon="3.42704">
        <ele>990.78</ele>
        <time>2013-01-06T12:56:43Z</time>
      </trkpt>
      <trkpt lat="44.25001" lon="3.42705">
        <ele>988.85</ele>
        <time>2013-01-06T12:56:59Z</time>
      </trkpt>
      <trkpt lat="44.24987" lon="3.4271">
        <ele>987.89</ele>
        <time>2013-01-06T12:57:16Z</time>
      </trkpt>
      <trkpt lat="44.2498" lon="3.42716">
        <ele>988.85</ele>
        <time>2013-01-06T12:57:28Z</time>
      </trkpt>
      <trkpt lat="44.24976" lon="3.4272">
        <ele>987.89</ele>
        <time>2013-01-06T12:57:41Z</time>
      </trkpt>
      <trkpt lat="44.24974" lon="3.42723">
        <ele>986.45</ele>
        <time>2013-01-06T12:57:48Z</time>
      </trkpt>
      <trkpt lat="44.24963" lon="3.4273">
        <ele>984.53</ele>
        <time>2013-01-06T12:58:03Z</time>
      </trkpt>
      <trkpt lat="44.24958" lon="3.4273">
        <ele>983.09</ele>
        <time>2013-01-06T12:58:15Z</time>
      </trkpt>
      <trkpt lat="44.24957" lon="3.42729">
        <ele>982.6</ele>
        <time>2013-01-06T12:58:37Z</time>
      </trkpt>
      <trkpt lat="44.24956" lon="3.42733">
        <ele>982.6</ele>
        <time>2013-01-06T12:58:53Z</time>
      </trkpt>
      <trkpt lat="44.24954" lon="3.42735">
        <ele>982.12</ele>
        <time>2013-01-06T12:59:10Z</time>
      </trkpt>
      <trkpt lat="44.24954" lon="3.42737">
        <ele>981.16</ele>
        <time>2013-01-06T12:59:24Z</time>
      </trkpt>
      <trkpt lat="44.24953" lon="3.42733">
        <ele>980.68</ele>
        <time>2013-01-06T12:59:33Z</time>
      </trkpt>
      <trkpt lat="44.24953" lon="3.4273">
        <ele>980.68</ele>
        <time>2013-01-06T13:00:01Z</time>
      </trkpt>
      <trkpt lat="44.24952" lon="3.4273">
        <ele>980.2</ele>
        <time>2013-01-06T13:00:22Z</time>
      </trkpt>
      <trkpt lat="44.24949" lon="3.42726">
        <ele>978.76</ele>
        <time>2013-01-06T13:00:37Z</time>
      </trkpt>
      <trkpt lat="44.24952" lon="3.42728">
        <ele>978.76</ele>
        <time>2013-01-06T13:01:09Z</time>
      </trkpt>
      <trkpt lat="44.24955" lon="3.42729">
        <ele>979.24</ele>
        <time>2013-01-06T13:01:39Z</time>
      </trkpt>
      <trkpt lat="44.24955" lon="3.42728">
        <ele>979.24</ele>
        <time>2013-01-06T13:02:04Z</time>
      </trkpt>
      <trkpt lat="44.24956" lon="3.42733">
        <ele>981.16</ele>
        <time>2013-01-06T13:02:23Z</time>
      </trkpt>
      <trkpt lat="44.24958" lon="3.42731">
        <ele>982.6</ele>
        <time>2013-01-06T13:02:40Z</time>
      </trkpt>
      <trkpt lat="44.24956" lon="3.42732">
        <ele>983.09</ele>
        <time>2013-01-06T13:02:57Z</time>
      </trkpt>
      <trkpt lat="44.24954" lon="3.42734">
        <ele>983.09</ele>
        <time>2013-01-06T13:03:20Z</time>
      </trkpt>
      <trkpt lat="44.24957" lon="3.42732">
        <ele>982.6</ele>
        <time>2013-01-06T13:03:41Z</time>
      </trkpt>
      <trkpt lat="44.24958" lon="3.42733">
        <ele>982.6</ele>
        <time>2013-01-06T13:04:05Z</time>
      </trkpt>
      <trkpt lat="44.24958" lon="3.42731">
        <ele>982.6</ele>
        <time>2013-01-06T13:04:30Z</time>
      </trkpt>
      <trkpt lat="44.24956" lon="3.42733">
        <ele>982.6</ele>
        <time>2013-01-06T13:04:55Z</time>
      </trkpt>
      <trkpt lat="44.24957" lon="3.42731">
        <ele>982.6</ele>
        <time>2013-01-06T13:05:14Z</time>
      </trkpt>
      <trkpt lat="44.24956" lon="3.42731">
        <ele>982.12</ele>
        <time>2013-01-06T13:05:36Z</time>
      </trkpt>
      <trkpt lat="44.24957" lon="3.42731">
        <ele>982.6</ele>
        <time>2013-01-06T13:05:59Z</time>
      </trkpt>
      <trkpt lat="44.24957" lon="3.42731">
        <ele>982.12</ele>
        <time>2013-01-06T13:06:27Z</time>
      </trkpt>
      <trkpt lat="44.24956" lon="3.42733">
        <ele>982.6</ele>
        <time>2013-01-06T13:06:54Z</time>
      </trkpt>
      <trkpt lat="44.24959" lon="3.42729">
        <ele>983.09</ele>
        <time>2013-01-06T13:07:21Z</time>
      </trkpt>
      <trkpt lat="44.24966" lon="3.42726">
        <ele>985.01</ele>
        <time>2013-01-06T13:07:35Z</time>
      </trkpt>
      <trkpt lat="44.24972" lon="3.42722">
        <ele>985.97</ele>
        <time>2013-01-06T13:07:49Z</time>
      </trkpt>
      <trkpt lat="44.2498" lon="3.42713">
        <ele>988.85</ele>
        <time>2013-01-06T13:08:06Z</time>
      </trkpt>
      <trkpt lat="44.24987" lon="3.42709">
        <ele>987.89</ele>
        <time>2013-01-06T13:08:20Z</time>
      </trkpt>
      <trkpt lat="44.24998" lon="3.42705">
        <ele>988.85</ele>
        <time>2013-01-06T13:08:32Z</time>
      </trkpt>
      <trkpt lat="44.25012" lon="3.42696">
        <ele>991.74</ele>
        <time>2013-01-06T13:08:46Z</time>
      </trkpt>
      <trkpt lat="44.25017" lon="3.4269">
        <ele>992.22</ele>
        <time>2013-01-06T13:08:52Z</time>
      </trkpt>
      <trkpt lat="44.2503" lon="3.42674">
        <ele>992.7</ele>
        <time>2013-01-06T13:09:08Z</time>
      </trkpt>
      <trkpt lat="44.2503" lon="3.42672">
        <ele>992.22</ele>
        <time>2013-01-06T13:09:10Z</time>
      </trkpt>
      <trkpt lat="44.25024" lon="3.42643">
        <ele>990.78</ele>
        <time>2013-01-06T13:09:29Z</time>
      </trkpt>
      <trkpt lat="44.25008" lon="3.42624">
        <ele>990.3</ele>
        <time>2013-01-06T13:09:46Z</time>
      </trkpt>
      <trkpt lat="44.24989" lon="3.42612">
        <ele>991.74</ele>
        <time>2013-01-06T13:10:04Z</time>
      </trkpt>
      <trkpt lat="44.24972" lon="3.42599">
        <ele>991.74</ele>
        <time>2013-01-06T13:10:20Z</time>
      </trkpt>
      <trkpt lat="44.24956" lon="3.42576">
        <ele>993.18</ele>
        <time>2013-01-06T13:10:37Z</time>
      </trkpt>
      <trkpt lat="44.24941" lon="3.42554">
        <ele>993.66</ele>
        <time>2013-01-06T13:10:55Z</time>
      </trkpt>
      <trkpt lat="44.24926" lon="3.42535">
        <ele>993.66</ele>
        <time>2013-01-06T13:11:11Z</time>
      </trkpt>
      <trkpt lat="44.24912" lon="3.42512">
        <ele>994.62</ele>
        <time>2013-01-06T13:11:28Z</time>
      </trkpt>
      <trkpt lat="44.24902" lon="3.42489">
        <ele>995.58</ele>
        <time>2013-01-06T13:11:44Z</time>
      </trkpt>
      <trkpt lat="44.24886" lon="3.42467">
        <ele>996.54</ele>
        <time>2013-01-06T13:12:03Z</time>
      </trkpt>
      <trkpt lat="44.24871" lon="3.42444">
        <ele>997.51</ele>
        <time>2013-01-06T13:12:21Z</time>
      </trkpt>
      <trkpt lat="44.24858" lon="3.42421">
        <ele>998.95</ele>
        <time>2013-01-06T13:12:39Z</time>
      </trkpt>
      <trkpt lat="44.24844" lon="3.42405">
        <ele>999.91</ele>
        <time>2013-01-06T13:12:55Z</time>
      </trkpt>
      <trkpt lat="44.24828" lon="3.42386">
        <ele>1000.87</ele>
        <time>2013-01-06T13:13:13Z</time>
      </trkpt>
      <trkpt lat="44.24811" lon="3.42367">
        <ele>1001.35</ele>
        <time>2013-01-06T13:13:31Z</time>
      </trkpt>
      <trkpt lat="44.24798" lon="3.42352">
        <ele>1001.83</ele>
        <time>2013-01-06T13:13:47Z</time>
      </trkpt>
      <trkpt lat="44.24783" lon="3.42333">
        <ele>1003.27</ele>
        <time>2013-01-06T13:14:05Z</time>
      </trkpt>
      <trkpt lat="44.24772" lon="3.42314">
        <ele>1004.23</ele>
        <time>2013-01-06T13:14:21Z</time>
      </trkpt>
      <trkpt lat="44.24763" lon="3.42294">
        <ele>1005.68</ele>
        <time>2013-01-06T13:14:36Z</time>
      </trkpt>
      <trkpt lat="44.24759" lon="3.42281">
        <ele>1006.16</ele>
        <time>2013-01-06T13:14:44Z</time>
      </trkpt>
      <trkpt lat="44.2475" lon="3.42257">
        <ele>1006.16</ele>
        <time>2013-01-06T13:15:01Z</time>
      </trkpt>
      <trkpt lat="44.2474" lon="3.4224">
        <ele>1006.64</ele>
        <time>2013-01-06T13:15:16Z</time>
      </trkpt>
      <trkpt lat="44.2474" lon="3.4224">
        <ele>1007.12</ele>
        <time>2013-01-06T13:15:18Z</time>
      </trkpt>
      <trkpt lat="44.24728" lon="3.4222">
        <ele>1007.12</ele>
        <time>2013-01-06T13:15:35Z</time>
      </trkpt>
      <trkpt lat="44.24713" lon="3.42201">
        <ele>1007.6</ele>
        <time>2013-01-06T13:15:53Z</time>
      </trkpt>
      <trkpt lat="44.24708" lon="3.42195">
        <ele>1007.12</ele>
        <time>2013-01-06T13:15:59Z</time>
      </trkpt>
      <trkpt lat="44.24692" lon="3.42175">
        <ele>1007.6</ele>
        <time>2013-01-06T13:16:18Z</time>
      </trkpt>
      <trkpt lat="44.24675" lon="3.42156">
        <ele>1008.08</ele>
        <time>2013-01-06T13:16:36Z</time>
      </trkpt>
      <trkpt lat="44.24664" lon="3.42144">
        <ele>1008.56</ele>
        <time>2013-01-06T13:16:49Z</time>
      </trkpt>
      <trkpt lat="44.24646" lon="3.42124">
        <ele>1010</ele>
        <time>2013-01-06T13:17:07Z</time>
      </trkpt>
      <trkpt lat="44.2463" lon="3.42103">
        <ele>1010.96</ele>
        <time>2013-01-06T13:17:24Z</time>
      </trkpt>
      <trkpt lat="44.24621" lon="3.42089">
        <ele>1011.44</ele>
        <time>2013-01-06T13:17:37Z</time>
      </trkpt>
      <trkpt lat="44.24613" lon="3.42081">
        <ele>1010.96</ele>
        <time>2013-01-06T13:17:51Z</time>
      </trkpt>
      <trkpt lat="44.24608" lon="3.42073">
        <ele>1011.93</ele>
        <time>2013-01-06T13:17:57Z</time>
      </trkpt>
      <trkpt lat="44.24604" lon="3.42069">
        <ele>1011.44</ele>
        <time>2013-01-06T13:18:02Z</time>
      </trkpt>
      <trkpt lat="44.24588" lon="3.42052">
        <ele>1011.93</ele>
        <time>2013-01-06T13:18:19Z</time>
      </trkpt>
      <trkpt lat="44.24571" lon="3.42033">
        <ele>1011.93</ele>
        <time>2013-01-06T13:18:37Z</time>
      </trkpt>
      <trkpt lat="44.24554" lon="3.42019">
        <ele>1011.93</ele>
        <time>2013-01-06T13:18:53Z</time>
      </trkpt>
      <trkpt lat="44.24535" lon="3.41996">
        <ele>1012.89</ele>
        <time>2013-01-06T13:19:13Z</time>
      </trkpt>
      <trkpt lat="44.24519" lon="3.41984">
        <ele>1014.33</ele>
        <time>2013-01-06T13:19:29Z</time>
      </trkpt>
      <trkpt lat="44.245" lon="3.41969">
        <ele>1015.29</ele>
        <time>2013-01-06T13:19:47Z</time>
      </trkpt>
      <trkpt lat="44.24482" lon="3.41952">
        <ele>1014.81</ele>
        <time>2013-01-06T13:20:05Z</time>
      </trkpt>
      <trkpt lat="44.24462" lon="3.41934">
        <ele>1012.89</ele>
        <time>2013-01-06T13:20:23Z</time>
      </trkpt>
      <trkpt lat="44.24449" lon="3.41919">
        <ele>1010</ele>
        <time>2013-01-06T13:20:37Z</time>
      </trkpt>
      <trkpt lat="44.24429" lon="3.419">
        <ele>1008.08</ele>
        <time>2013-01-06T13:20:55Z</time>
      </trkpt>
      <trkpt lat="44.24414" lon="3.41888">
        <ele>1007.12</ele>
        <time>2013-01-06T13:21:09Z</time>
      </trkpt>
      <trkpt lat="44.24395" lon="3.41874">
        <ele>1005.2</ele>
        <time>2013-01-06T13:21:26Z</time>
      </trkpt>
      <trkpt lat="44.24392" lon="3.41872">
        <ele>1006.64</ele>
        <time>2013-01-06T13:21:29Z</time>
      </trkpt>
      <trkpt lat="44.24375" lon="3.41858">
        <ele>1003.75</ele>
        <time>2013-01-06T13:21:46Z</time>
      </trkpt>
      <trkpt lat="44.24363" lon="3.41856">
        <ele>1003.75</ele>
        <time>2013-01-06T13:21:56Z</time>
      </trkpt>
      <trkpt lat="44.24349" lon="3.41857">
        <ele>1003.27</ele>
        <time>2013-01-06T13:22:09Z</time>
      </trkpt>
      <trkpt lat="44.24331" lon="3.41857">
        <ele>999.43</ele>
        <time>2013-01-06T13:22:26Z</time>
      </trkpt>
      <trkpt lat="44.24312" lon="3.41852">
        <ele>998.95</ele>
        <time>2013-01-06T13:22:42Z</time>
      </trkpt>
      <trkpt lat="44.24289" lon="3.41847">
        <ele>997.02</ele>
        <time>2013-01-06T13:23:00Z</time>
      </trkpt>
      <trkpt lat="44.24267" lon="3.41843">
        <ele>996.54</ele>
        <time>2013-01-06T13:23:18Z</time>
      </trkpt>
      <trkpt lat="44.24241" lon="3.41843">
        <ele>995.58</ele>
        <time>2013-01-06T13:23:39Z</time>
      </trkpt>
      <trkpt lat="44.24236" lon="3.41844">
        <ele>995.1</ele>
        <time>2013-01-06T13:23:44Z</time>
      </trkpt>
      <trkpt lat="44.24232" lon="3.41847">
        <ele>994.14</ele>
        <time>2013-01-06T13:23:48Z</time>
      </trkpt>
      <trkpt lat="44.24228" lon="3.41847">
        <ele>993.66</ele>
        <time>2013-01-06T13:23:51Z</time>
      </trkpt>
      <trkpt lat="44.24226" lon="3.41849">
        <ele>993.18</ele>
        <time>2013-01-06T13:23:53Z</time>
      </trkpt>
      <trkpt lat="44.24208" lon="3.41854">
        <ele>993.66</ele>
        <time>2013-01-06T13:24:09Z</time>
      </trkpt>
      <trkpt lat="44.24206" lon="3.41858">
        <ele>993.66</ele>
        <time>2013-01-06T13:24:14Z</time>
      </trkpt>
      <trkpt lat="44.24204" lon="3.41863">
        <ele>993.66</ele>
        <time>2013-01-06T13:24:18Z</time>
      </trkpt>
      <trkpt lat="44.24192" lon="3.41891">
        <ele>995.1</ele>
        <time>2013-01-06T13:24:37Z</time>
      </trkpt>
      <trkpt lat="44.24183" lon="3.41908">
        <ele>995.58</ele>
        <time>2013-01-06T13:24:51Z</time>
      </trkpt>
      <trkpt lat="44.24176" lon="3.41926">
        <ele>997.99</ele>
        <time>2013-01-06T13:25:06Z</time>
      </trkpt>
      <trkpt lat="44.24169" lon="3.41946">
        <ele>998.95</ele>
        <time>2013-01-06T13:25:21Z</time>
      </trkpt>
      <trkpt lat="44.24169" lon="3.41947">
        <ele>998.95</ele>
        <time>2013-01-06T13:25:22Z</time>
      </trkpt>
      <trkpt lat="44.24166" lon="3.41961">
        <ele>998.95</ele>
        <time>2013-01-06T13:25:33Z</time>
      </trkpt>
      <trkpt lat="44.24162" lon="3.41982">
        <ele>1000.87</ele>
        <time>2013-01-06T13:25:47Z</time>
      </trkpt>
      <trkpt lat="44.24156" lon="3.42003">
        <ele>1001.83</ele>
        <time>2013-01-06T13:26:02Z</time>
      </trkpt>
      <trkpt lat="44.24148" lon="3.42019">
        <ele>1002.79</ele>
        <time>2013-01-06T13:26:17Z</time>
      </trkpt>
      <trkpt lat="44.24147" lon="3.42024">
        <ele>1002.31</ele>
        <time>2013-01-06T13:26:24Z</time>
      </trkpt>
      <trkpt lat="44.24147" lon="3.42027">
        <ele>1002.79</ele>
        <time>2013-01-06T13:26:26Z</time>
      </trkpt>
      <trkpt lat="44.24143" lon="3.42047">
        <ele>1003.75</ele>
        <time>2013-01-06T13:26:43Z</time>
      </trkpt>
      <trkpt lat="44.24138" lon="3.42064">
        <ele>1003.75</ele>
        <time>2013-01-06T13:26:56Z</time>
      </trkpt>
      <trkpt lat="44.24135" lon="3.42071">
        <ele>1005.2</ele>
        <time>2013-01-06T13:27:03Z</time>
      </trkpt>
      <trkpt lat="44.24136" lon="3.42093">
        <ele>1007.12</ele>
        <time>2013-01-06T13:27:19Z</time>
      </trkpt>
      <trkpt lat="44.24138" lon="3.421">
        <ele>1008.56</ele>
        <time>2013-01-06T13:27:25Z</time>
      </trkpt>
      <trkpt lat="44.24139" lon="3.42103">
        <ele>1008.08</ele>
        <time>2013-01-06T13:27:28Z</time>
      </trkpt>
      <trkpt lat="44.2414" lon="3.42109">
        <ele>1009.52</ele>
        <time>2013-01-06T13:27:36Z</time>
      </trkpt>
      <trkpt lat="44.24142" lon="3.42122">
        <ele>1010.48</ele>
        <time>2013-01-06T13:27:49Z</time>
      </trkpt>
      <trkpt lat="44.24142" lon="3.42135">
        <ele>1012.89</ele>
        <time>2013-01-06T13:28:00Z</time>
      </trkpt>
      <trkpt lat="44.24142" lon="3.42152">
        <ele>1014.33</ele>
        <time>2013-01-06T13:28:15Z</time>
      </trkpt>
      <trkpt lat="44.24143" lon="3.4217">
        <ele>1016.73</ele>
        <time>2013-01-06T13:28:29Z</time>
      </trkpt>
      <trkpt lat="44.24141" lon="3.42181">
        <ele>1018.65</ele>
        <time>2013-01-06T13:28:43Z</time>
      </trkpt>
      <trkpt lat="44.24139" lon="3.42187">
        <ele>1021.06</ele>
        <time>2013-01-06T13:28:56Z</time>
      </trkpt>
      <trkpt lat="44.24134" lon="3.42202">
        <ele>1022.98</ele>
        <time>2013-01-06T13:29:12Z</time>
      </trkpt>
      <trkpt lat="44.24132" lon="3.42204">
        <ele>1023.94</ele>
        <time>2013-01-06T13:29:15Z</time>
      </trkpt>
      <trkpt lat="44.24121" lon="3.42218">
        <ele>1024.9</ele>
        <time>2013-01-06T13:29:31Z</time>
      </trkpt>
      <trkpt lat="44.24112" lon="3.42231">
        <ele>1026.83</ele>
        <time>2013-01-06T13:29:46Z</time>
      </trkpt>
      <trkpt lat="44.24104" lon="3.42245">
        <ele>1027.79</ele>
        <time>2013-01-06T13:30:01Z</time>
      </trkpt>
      <trkpt lat="44.24096" lon="3.42249">
        <ele>1028.75</ele>
        <time>2013-01-06T13:30:15Z</time>
      </trkpt>
      <trkpt lat="44.2409" lon="3.42243">
        <ele>1028.27</ele>
        <time>2013-01-06T13:30:28Z</time>
      </trkpt>
      <trkpt lat="44.24089" lon="3.42249">
        <ele>1029.23</ele>
        <time>2013-01-06T13:30:41Z</time>
      </trkpt>
      <trkpt lat="44.24079" lon="3.42258">
        <ele>1029.23</ele>
        <time>2013-01-06T13:30:54Z</time>
      </trkpt>
      <trkpt lat="44.24073" lon="3.42271">
        <ele>1032.59</ele>
        <time>2013-01-06T13:31:06Z</time>
      </trkpt>
      <trkpt lat="44.24064" lon="3.42289">
        <ele>1035</ele>
        <time>2013-01-06T13:31:21Z</time>
      </trkpt>
      <trkpt lat="44.24059" lon="3.42295">
        <ele>1035.96</ele>
        <time>2013-01-06T13:31:27Z</time>
      </trkpt>
      <trkpt lat="44.2405" lon="3.42312">
        <ele>1038.84</ele>
        <time>2013-01-06T13:31:42Z</time>
      </trkpt>
      <trkpt lat="44.24043" lon="3.42327">
        <ele>1040.28</ele>
        <time>2013-01-06T13:31:57Z</time>
      </trkpt>
      <trkpt lat="44.24036" lon="3.42336">
        <ele>1040.76</ele>
        <time>2013-01-06T13:32:12Z</time>
      </trkpt>
      <trkpt lat="44.24027" lon="3.42353">
        <ele>1042.21</ele>
        <time>2013-01-06T13:32:27Z</time>
      </trkpt>
      <trkpt lat="44.24021" lon="3.42365">
        <ele>1043.17</ele>
        <time>2013-01-06T13:32:42Z</time>
      </trkpt>
      <trkpt lat="44.24016" lon="3.42377">
        <ele>1043.17</ele>
        <time>2013-01-06T13:32:55Z</time>
      </trkpt>
      <trkpt lat="44.24003" lon="3.42394">
        <ele>1043.65</ele>
        <time>2013-01-06T13:33:11Z</time>
      </trkpt>
      <trkpt lat="44.2399" lon="3.42413">
        <ele>1043.65</ele>
        <time>2013-01-06T13:33:29Z</time>
      </trkpt>
      <trkpt lat="44.23978" lon="3.42433">
        <ele>1043.65</ele>
        <time>2013-01-06T13:33:47Z</time>
      </trkpt>
      <trkpt lat="44.2397" lon="3.4244">
        <ele>1042.69</ele>
        <time>2013-01-06T13:34:03Z</time>
      </trkpt>
      <trkpt lat="44.23959" lon="3.4245">
        <ele>1041.73</ele>
        <time>2013-01-06T13:34:17Z</time>
      </trkpt>
      <trkpt lat="44.23946" lon="3.42463">
        <ele>1041.25</ele>
        <time>2013-01-06T13:34:32Z</time>
      </trkpt>
      <trkpt lat="44.23933" lon="3.4247">
        <ele>1040.28</ele>
        <time>2013-01-06T13:34:45Z</time>
      </trkpt>
      <trkpt lat="44.23916" lon="3.42486">
        <ele>1038.84</ele>
        <time>2013-01-06T13:35:04Z</time>
      </trkpt>
      <trkpt lat="44.23902" lon="3.42492">
        <ele>1036.44</ele>
        <time>2013-01-06T13:35:19Z</time>
      </trkpt>
      <trkpt lat="44.239" lon="3.42493">
        <ele>1035.96</ele>
        <time>2013-01-06T13:35:21Z</time>
      </trkpt>
      <trkpt lat="44.23897" lon="3.42495">
        <ele>1035.48</ele>
        <time>2013-01-06T13:35:24Z</time>
      </trkpt>
      <trkpt lat="44.23894" lon="3.42497">
        <ele>1035.48</ele>
        <time>2013-01-06T13:35:27Z</time>
      </trkpt>
      <trkpt lat="44.23886" lon="3.42503">
        <ele>1034.52</ele>
        <time>2013-01-06T13:35:37Z</time>
      </trkpt>
      <trkpt lat="44.23875" lon="3.42514">
        <ele>1031.63</ele>
        <time>2013-01-06T13:35:50Z</time>
      </trkpt>
      <trkpt lat="44.23873" lon="3.42517">
        <ele>1031.63</ele>
        <time>2013-01-06T13:35:54Z</time>
      </trkpt>
      <trkpt lat="44.23871" lon="3.42518">
        <ele>1031.63</ele>
        <time>2013-01-06T13:36:07Z</time>
      </trkpt>
      <trkpt lat="44.23865" lon="3.42522">
        <ele>1030.19</ele>
        <time>2013-01-06T13:36:14Z</time>
      </trkpt>
      <trkpt lat="44.23853" lon="3.42535">
        <ele>1027.31</ele>
        <time>2013-01-06T13:36:30Z</time>
      </trkpt>
      <trkpt lat="44.23839" lon="3.42547">
        <ele>1024.42</ele>
        <time>2013-01-06T13:36:46Z</time>
      </trkpt>
      <trkpt lat="44.23839" lon="3.42547">
        <ele>1024.42</ele>
        <time>2013-01-06T13:36:47Z</time>
      </trkpt>
      <trkpt lat="44.23835" lon="3.42552">
        <ele>1023.46</ele>
        <time>2013-01-06T13:37:02Z</time>
      </trkpt>
      <trkpt lat="44.23824" lon="3.42562">
        <ele>1021.54</ele>
        <time>2013-01-06T13:37:16Z</time>
      </trkpt>
      <trkpt lat="44.23815" lon="3.42576">
        <ele>1020.58</ele>
        <time>2013-01-06T13:37:33Z</time>
      </trkpt>
      <trkpt lat="44.2381" lon="3.42582">
        <ele>1017.69</ele>
        <time>2013-01-06T13:37:38Z</time>
      </trkpt>
      <trkpt lat="44.23807" lon="3.42583">
        <ele>1017.69</ele>
        <time>2013-01-06T13:37:41Z</time>
      </trkpt>
      <trkpt lat="44.23796" lon="3.42587">
        <ele>1014.81</ele>
        <time>2013-01-06T13:37:54Z</time>
      </trkpt>
      <trkpt lat="44.23793" lon="3.4259">
        <ele>1013.85</ele>
        <time>2013-01-06T13:37:58Z</time>
      </trkpt>
      <trkpt lat="44.23777" lon="3.42593">
        <ele>1010</ele>
        <time>2013-01-06T13:38:12Z</time>
      </trkpt>
      <trkpt lat="44.23761" lon="3.42594">
        <ele>1006.64</ele>
        <time>2013-01-06T13:38:27Z</time>
      </trkpt>
      <trkpt lat="44.23757" lon="3.42595">
        <ele>1006.16</ele>
        <time>2013-01-06T13:38:31Z</time>
      </trkpt>
      <trkpt lat="44.23741" lon="3.42595">
        <ele>1002.79</ele>
        <time>2013-01-06T13:38:46Z</time>
      </trkpt>
      <trkpt lat="44.23721" lon="3.42599">
        <ele>1000.39</ele>
        <time>2013-01-06T13:39:03Z</time>
      </trkpt>
      <trkpt lat="44.23718" lon="3.426">
        <ele>998.95</ele>
        <time>2013-01-06T13:39:16Z</time>
      </trkpt>
      <trkpt lat="44.2372" lon="3.42603">
        <ele>999.43</ele>
        <time>2013-01-06T13:39:42Z</time>
      </trkpt>
      <trkpt lat="44.23718" lon="3.42601">
        <ele>999.91</ele>
        <time>2013-01-06T13:40:05Z</time>
      </trkpt>
      <trkpt lat="44.23718" lon="3.42602">
        <ele>999.91</ele>
        <time>2013-01-06T13:40:19Z</time>
      </trkpt>
      <trkpt lat="44.23703" lon="3.42609">
        <ele>998.47</ele>
        <time>2013-01-06T13:40:36Z</time>
      </trkpt>
      <trkpt lat="44.23704" lon="3.42608">
        <ele>997.99</ele>
        <time>2013-01-06T13:41:07Z</time>
      </trkpt>
      <trkpt lat="44.23697" lon="3.4261">
        <ele>997.51</ele>
        <time>2013-01-06T13:41:14Z</time>
      </trkpt>
      <trkpt lat="44.23692" lon="3.42615">
        <ele>996.06</ele>
        <time>2013-01-06T13:41:19Z</time>
      </trkpt>
      <trkpt lat="44.23683" lon="3.42621">
        <ele>994.62</ele>
        <time>2013-01-06T13:41:31Z</time>
      </trkpt>
      <trkpt lat="44.23679" lon="3.42624">
        <ele>991.74</ele>
        <time>2013-01-06T13:41:33Z</time>
      </trkpt>
      <trkpt lat="44.23662" lon="3.42645">
        <ele>987.89</ele>
        <time>2013-01-06T13:41:45Z</time>
      </trkpt>
      <trkpt lat="44.2366" lon="3.42646">
        <ele>988.85</ele>
        <time>2013-01-06T13:41:46Z</time>
      </trkpt>
      <trkpt lat="44.23654" lon="3.42653">
        <ele>986.93</ele>
        <time>2013-01-06T13:41:50Z</time>
      </trkpt>
      <trkpt lat="44.23643" lon="3.42667">
        <ele>984.53</ele>
        <time>2013-01-06T13:42:03Z</time>
      </trkpt>
      <trkpt lat="44.23625" lon="3.42678">
        <ele>981.16</ele>
        <time>2013-01-06T13:42:17Z</time>
      </trkpt>
      <trkpt lat="44.23602" lon="3.42705">
        <ele>978.76</ele>
        <time>2013-01-06T13:42:37Z</time>
      </trkpt>
      <trkpt lat="44.23589" lon="3.4272">
        <ele>977.8</ele>
        <time>2013-01-06T13:42:50Z</time>
      </trkpt>
      <trkpt lat="44.2356" lon="3.42749">
        <ele>977.8</ele>
        <time>2013-01-06T13:43:14Z</time>
      </trkpt>
      <trkpt lat="44.23548" lon="3.42766">
        <ele>977.32</ele>
        <time>2013-01-06T13:43:27Z</time>
      </trkpt>
      <trkpt lat="44.23527" lon="3.42798">
        <ele>976.84</ele>
        <time>2013-01-06T13:43:47Z</time>
      </trkpt>
      <trkpt lat="44.23511" lon="3.42825">
        <ele>975.39</ele>
        <time>2013-01-06T13:44:04Z</time>
      </trkpt>
      <trkpt lat="44.23493" lon="3.42856">
        <ele>974.43</ele>
        <time>2013-01-06T13:44:22Z</time>
      </trkpt>
      <trkpt lat="44.23479" lon="3.4289">
        <ele>972.99</ele>
        <time>2013-01-06T13:44:39Z</time>
      </trkpt>
      <trkpt lat="44.23459" lon="3.42922">
        <ele>970.11</ele>
        <time>2013-01-06T13:44:58Z</time>
      </trkpt>
      <trkpt lat="44.23433" lon="3.42945">
        <ele>972.99</ele>
        <time>2013-01-06T13:45:18Z</time>
      </trkpt>
      <trkpt lat="44.2341" lon="3.42963">
        <ele>974.91</ele>
        <time>2013-01-06T13:45:35Z</time>
      </trkpt>
      <trkpt lat="44.23387" lon="3.42978">
        <ele>977.8</ele>
        <time>2013-01-06T13:45:53Z</time>
      </trkpt>
      <trkpt lat="44.23367" lon="3.42991">
        <ele>980.68</ele>
        <time>2013-01-06T13:46:08Z</time>
      </trkpt>
      <trkpt lat="44.23351" lon="3.43005">
        <ele>983.57</ele>
        <time>2013-01-06T13:46:22Z</time>
      </trkpt>
      <trkpt lat="44.23326" lon="3.43023">
        <ele>986.93</ele>
        <time>2013-01-06T13:46:41Z</time>
      </trkpt>
      <trkpt lat="44.23307" lon="3.43036">
        <ele>989.33</ele>
        <time>2013-01-06T13:46:56Z</time>
      </trkpt>
      <trkpt lat="44.2329" lon="3.43048">
        <ele>992.7</ele>
        <time>2013-01-06T13:47:10Z</time>
      </trkpt>
      <trkpt lat="44.23273" lon="3.4306">
        <ele>996.06</ele>
        <time>2013-01-06T13:47:25Z</time>
      </trkpt>
      <trkpt lat="44.23255" lon="3.43072">
        <ele>998.95</ele>
        <time>2013-01-06T13:47:40Z</time>
      </trkpt>
      <trkpt lat="44.23241" lon="3.43082">
        <ele>1002.31</ele>
        <time>2013-01-06T13:47:52Z</time>
      </trkpt>
      <trkpt lat="44.23228" lon="3.4309">
        <ele>1005.2</ele>
        <time>2013-01-06T13:48:05Z</time>
      </trkpt>
      <trkpt lat="44.23218" lon="3.43095">
        <ele>1008.56</ele>
        <time>2013-01-06T13:48:15Z</time>
      </trkpt>
      <trkpt lat="44.23207" lon="3.43098">
        <ele>1011.93</ele>
        <time>2013-01-06T13:48:26Z</time>
      </trkpt>
      <trkpt lat="44.23201" lon="3.43098">
        <ele>1013.37</ele>
        <time>2013-01-06T13:48:33Z</time>
      </trkpt>
      <trkpt lat="44.2319" lon="3.431">
        <ele>1016.73</ele>
        <time>2013-01-06T13:48:44Z</time>
      </trkpt>
      <trkpt lat="44.23183" lon="3.43104">
        <ele>1018.65</ele>
        <time>2013-01-06T13:48:55Z</time>
      </trkpt>
      <trkpt lat="44.23174" lon="3.43114">
        <ele>1022.5</ele>
        <time>2013-01-06T13:49:08Z</time>
      </trkpt>
      <trkpt lat="44.23172" lon="3.43118">
        <ele>1022.5</ele>
        <time>2013-01-06T13:49:11Z</time>
      </trkpt>
      <trkpt lat="44.23168" lon="3.43129">
        <ele>1023.94</ele>
        <time>2013-01-06T13:49:19Z</time>
      </trkpt>
      <trkpt lat="44.23165" lon="3.43134">
        <ele>1025.86</ele>
        <time>2013-01-06T13:49:24Z</time>
      </trkpt>
      <trkpt lat="44.23151" lon="3.43157">
        <ele>1028.27</ele>
        <time>2013-01-06T13:49:42Z</time>
      </trkpt>
      <trkpt lat="44.23138" lon="3.43185">
        <ele>1030.67</ele>
        <time>2013-01-06T13:50:01Z</time>
      </trkpt>
      <trkpt lat="44.23127" lon="3.43205">
        <ele>1033.55</ele>
        <time>2013-01-06T13:50:13Z</time>
      </trkpt>
      <trkpt lat="44.23119" lon="3.4324">
        <ele>1032.59</ele>
        <time>2013-01-06T13:50:32Z</time>
      </trkpt>
      <trkpt lat="44.2311" lon="3.43273">
        <ele>1033.07</ele>
        <time>2013-01-06T13:50:50Z</time>
      </trkpt>
      <trkpt lat="44.23091" lon="3.43304">
        <ele>1034.04</ele>
        <time>2013-01-06T13:51:11Z</time>
      </trkpt>
      <trkpt lat="44.23075" lon="3.43339">
        <ele>1034.04</ele>
        <time>2013-01-06T13:51:32Z</time>
      </trkpt>
      <trkpt lat="44.23074" lon="3.4335">
        <ele>1035.48</ele>
        <time>2013-01-06T13:51:45Z</time>
      </trkpt>
      <trkpt lat="44.23076" lon="3.43355">
        <ele>1035.48</ele>
        <time>2013-01-06T13:52:04Z</time>
      </trkpt>
      <trkpt lat="44.23076" lon="3.43354">
        <ele>1035.96</ele>
        <time>2013-01-06T13:52:34Z</time>
      </trkpt>
      <trkpt lat="44.23075" lon="3.43355">
        <ele>1036.44</ele>
        <time>2013-01-06T13:53:00Z</time>
      </trkpt>
      <trkpt lat="44.23075" lon="3.43354">
        <ele>1035.96</ele>
        <time>2013-01-06T13:53:28Z</time>
      </trkpt>
      <trkpt lat="44.23076" lon="3.43353">
        <ele>1036.44</ele>
        <time>2013-01-06T13:53:52Z</time>
      </trkpt>
      <trkpt lat="44.23075" lon="3.43352">
        <ele>1036.44</ele>
        <time>2013-01-06T13:54:16Z</time>
      </trkpt>
      <trkpt lat="44.23075" lon="3.43352">
        <ele>1036.92</ele>
        <time>2013-01-06T13:54:42Z</time>
      </trkpt>
      <trkpt lat="44.23073" lon="3.4335">
        <ele>1036.92</ele>
        <time>2013-01-06T13:55:00Z</time>
      </trkpt>
      <trkpt lat="44.23073" lon="3.43351">
        <ele>1035.96</ele>
        <time>2013-01-06T13:55:04Z</time>
      </trkpt>
      <trkpt lat="44.23072" lon="3.43351">
        <ele>1035.96</ele>
        <time>2013-01-06T13:55:24Z</time>
      </trkpt>
      <trkpt lat="44.23072" lon="3.43351">
        <ele>1035.96</ele>
        <time>2013-01-06T13:55:44Z</time>
      </trkpt>
      <trkpt lat="44.23073" lon="3.43351">
        <ele>1035.96</ele>
        <time>2013-01-06T13:55:59Z</time>
      </trkpt>
      <trkpt lat="44.23072" lon="3.43351">
        <ele>1035.96</ele>
        <time>2013-01-06T13:56:16Z</time>
      </trkpt>
      <trkpt lat="44.23072" lon="3.43353">
        <ele>1036.44</ele>
        <time>2013-01-06T13:56:33Z</time>
      </trkpt>
      <trkpt lat="44.23072" lon="3.43352">
        <ele>1036.44</ele>
        <time>2013-01-06T13:56:47Z</time>
      </trkpt>
      <trkpt lat="44.23073" lon="3.43352">
        <ele>1035.48</ele>
        <time>2013-01-06T13:57:08Z</time>
      </trkpt>
      <trkpt lat="44.23071" lon="3.43345">
        <ele>1035.96</ele>
        <time>2013-01-06T13:57:19Z</time>
      </trkpt>
      <trkpt lat="44.23073" lon="3.43337">
        <ele>1034.52</ele>
        <time>2013-01-06T13:57:32Z</time>
      </trkpt>
      <trkpt lat="44.23072" lon="3.43338">
        <ele>1035</ele>
        <time>2013-01-06T13:57:52Z</time>
      </trkpt>
      <trkpt lat="44.23071" lon="3.43342">
        <ele>1033.55</ele>
        <time>2013-01-06T13:58:05Z</time>
      </trkpt>
      <trkpt lat="44.23073" lon="3.43344">
        <ele>1034.52</ele>
        <time>2013-01-06T13:58:21Z</time>
      </trkpt>
      <trkpt lat="44.23071" lon="3.43346">
        <ele>1035</ele>
        <time>2013-01-06T13:58:41Z</time>
      </trkpt>
      <trkpt lat="44.23069" lon="3.43349">
        <ele>1035.96</ele>
        <time>2013-01-06T13:58:54Z</time>
      </trkpt>
      <trkpt lat="44.23069" lon="3.43349">
        <ele>1035</ele>
        <time>2013-01-06T13:59:02Z</time>
      </trkpt>
      <trkpt lat="44.23068" lon="3.43351">
        <ele>1035.96</ele>
        <time>2013-01-06T13:59:19Z</time>
      </trkpt>
      <trkpt lat="44.23068" lon="3.43351">
        <ele>1034.52</ele>
        <time>2013-01-06T13:59:31Z</time>
      </trkpt>
      <trkpt lat="44.23067" lon="3.43348">
        <ele>1034.04</ele>
        <time>2013-01-06T13:59:48Z</time>
      </trkpt>
      <trkpt lat="44.23065" lon="3.43348">
        <ele>1034.52</ele>
        <time>2013-01-06T14:00:15Z</time>
      </trkpt>
      <trkpt lat="44.23067" lon="3.43348">
        <ele>1034.04</ele>
        <time>2013-01-06T14:00:46Z</time>
      </trkpt>
      <trkpt lat="44.23066" lon="3.43347">
        <ele>1033.55</ele>
        <time>2013-01-06T14:01:13Z</time>
      </trkpt>
      <trkpt lat="44.23068" lon="3.43347">
        <ele>1035</ele>
        <time>2013-01-06T14:01:46Z</time>
      </trkpt>
      <trkpt lat="44.23067" lon="3.43347">
        <ele>1034.52</ele>
        <time>2013-01-06T14:02:18Z</time>
      </trkpt>
      <trkpt lat="44.23065" lon="3.43349">
        <ele>1034.52</ele>
        <time>2013-01-06T14:02:52Z</time>
      </trkpt>
      <trkpt lat="44.23068" lon="3.43346">
        <ele>1035.48</ele>
        <time>2013-01-06T14:02:59Z</time>
      </trkpt>
      <trkpt lat="44.23072" lon="3.43333">
        <ele>1035</ele>
        <time>2013-01-06T14:03:07Z</time>
      </trkpt>
      <trkpt lat="44.23082" lon="3.43295">
        <ele>1034.52</ele>
        <time>2013-01-06T14:03:31Z</time>
      </trkpt>
      <trkpt lat="44.23096" lon="3.43253">
        <ele>1034.04</ele>
        <time>2013-01-06T14:03:55Z</time>
      </trkpt>
      <trkpt lat="44.2311" lon="3.43214">
        <ele>1033.55</ele>
        <time>2013-01-06T14:04:20Z</time>
      </trkpt>
      <trkpt lat="44.23124" lon="3.43176">
        <ele>1035</ele>
        <time>2013-01-06T14:04:44Z</time>
      </trkpt>
      <trkpt lat="44.23129" lon="3.43168">
        <ele>1035</ele>
        <time>2013-01-06T14:04:51Z</time>
      </trkpt>
      <trkpt lat="44.23132" lon="3.43158">
        <ele>1031.63</ele>
        <time>2013-01-06T14:04:58Z</time>
      </trkpt>
      <trkpt lat="44.23135" lon="3.43155">
        <ele>1031.15</ele>
        <time>2013-01-06T14:05:02Z</time>
      </trkpt>
      <trkpt lat="44.23136" lon="3.43147">
        <ele>1032.59</ele>
        <time>2013-01-06T14:05:07Z</time>
      </trkpt>
      <trkpt lat="44.23137" lon="3.43112">
        <ele>1028.75</ele>
        <time>2013-01-06T14:05:26Z</time>
      </trkpt>
      <trkpt lat="44.23139" lon="3.43099">
        <ele>1026.83</ele>
        <time>2013-01-06T14:05:34Z</time>
      </trkpt>
      <trkpt lat="44.23142" lon="3.43091">
        <ele>1025.38</ele>
        <time>2013-01-06T14:05:48Z</time>
      </trkpt>
      <trkpt lat="44.23144" lon="3.43089">
        <ele>1025.86</ele>
        <time>2013-01-06T14:06:12Z</time>
      </trkpt>
      <trkpt lat="44.23143" lon="3.43084">
        <ele>1024.9</ele>
        <time>2013-01-06T14:06:19Z</time>
      </trkpt>
      <trkpt lat="44.23146" lon="3.43068">
        <ele>1022.5</ele>
        <time>2013-01-06T14:06:28Z</time>
      </trkpt>
      <trkpt lat="44.23151" lon="3.43037">
        <ele>1019.62</ele>
        <time>2013-01-06T14:06:44Z</time>
      </trkpt>
      <trkpt lat="44.23161" lon="3.42988">
        <ele>1018.65</ele>
        <time>2013-01-06T14:07:08Z</time>
      </trkpt>
      <trkpt lat="44.23172" lon="3.42942">
        <ele>1015.77</ele>
        <time>2013-01-06T14:07:33Z</time>
      </trkpt>
      <trkpt lat="44.23184" lon="3.42899">
        <ele>1013.37</ele>
        <time>2013-01-06T14:07:55Z</time>
      </trkpt>
      <trkpt lat="44.23199" lon="3.4285">
        <ele>1010.96</ele>
        <time>2013-01-06T14:08:20Z</time>
      </trkpt>
      <trkpt lat="44.23211" lon="3.42808">
        <ele>1009.52</ele>
        <time>2013-01-06T14:08:42Z</time>
      </trkpt>
      <trkpt lat="44.23219" lon="3.42771">
        <ele>1006.16</ele>
        <time>2013-01-06T14:09:02Z</time>
      </trkpt>
      <trkpt lat="44.2323" lon="3.42744">
        <ele>1003.27</ele>
        <time>2013-01-06T14:09:18Z</time>
      </trkpt>
      <trkpt lat="44.23243" lon="3.42712">
        <ele>999.91</ele>
        <time>2013-01-06T14:09:38Z</time>
      </trkpt>
      <trkpt lat="44.23243" lon="3.4271">
        <ele>999.43</ele>
        <time>2013-01-06T14:09:39Z</time>
      </trkpt>
      <trkpt lat="44.2325" lon="3.42683">
        <ele>996.54</ele>
        <time>2013-01-06T14:09:56Z</time>
      </trkpt>
      <trkpt lat="44.23257" lon="3.42657">
        <ele>993.18</ele>
        <time>2013-01-06T14:10:11Z</time>
      </trkpt>
      <trkpt lat="44.23258" lon="3.42646">
        <ele>992.22</ele>
        <time>2013-01-06T14:10:18Z</time>
      </trkpt>
      <trkpt lat="44.23263" lon="3.4263">
        <ele>989.81</ele>
        <time>2013-01-06T14:10:29Z</time>
      </trkpt>
      <trkpt lat="44.23273" lon="3.4261">
        <ele>986.45</ele>
        <time>2013-01-06T14:10:46Z</time>
      </trkpt>
      <trkpt lat="44.23278" lon="3.42599">
        <ele>985.49</ele>
        <time>2013-01-06T14:10:55Z</time>
      </trkpt>
      <trkpt lat="44.23286" lon="3.42579">
        <ele>982.12</ele>
        <time>2013-01-06T14:11:10Z</time>
      </trkpt>
      <trkpt lat="44.23298" lon="3.42551">
        <ele>981.16</ele>
        <time>2013-01-06T14:11:30Z</time>
      </trkpt>
      <trkpt lat="44.2331" lon="3.42521">
        <ele>978.28</ele>
        <time>2013-01-06T14:11:49Z</time>
      </trkpt>
      <trkpt lat="44.23321" lon="3.42499">
        <ele>976.36</ele>
        <time>2013-01-06T14:12:06Z</time>
      </trkpt>
      <trkpt lat="44.23322" lon="3.42496">
        <ele>975.88</ele>
        <time>2013-01-06T14:12:08Z</time>
      </trkpt>
      <trkpt lat="44.23333" lon="3.42477">
        <ele>972.51</ele>
        <time>2013-01-06T14:12:21Z</time>
      </trkpt>
      <trkpt lat="44.23346" lon="3.42467">
        <ele>968.67</ele>
        <time>2013-01-06T14:12:32Z</time>
      </trkpt>
      <trkpt lat="44.23364" lon="3.42454">
        <ele>965.78</ele>
        <time>2013-01-06T14:12:46Z</time>
      </trkpt>
      <trkpt lat="44.23367" lon="3.42452">
        <ele>964.34</ele>
        <time>2013-01-06T14:12:48Z</time>
      </trkpt>
      <trkpt lat="44.23387" lon="3.42419">
        <ele>964.82</ele>
        <time>2013-01-06T14:13:09Z</time>
      </trkpt>
      <trkpt lat="44.23397" lon="3.42398">
        <ele>968.18</ele>
        <time>2013-01-06T14:13:23Z</time>
      </trkpt>
      <trkpt lat="44.23409" lon="3.42365">
        <ele>971.55</ele>
        <time>2013-01-06T14:13:42Z</time>
      </trkpt>
      <trkpt lat="44.23426" lon="3.42331">
        <ele>971.07</ele>
        <time>2013-01-06T14:14:03Z</time>
      </trkpt>
      <trkpt lat="44.23445" lon="3.42293">
        <ele>971.07</ele>
        <time>2013-01-06T14:14:26Z</time>
      </trkpt>
      <trkpt lat="44.23471" lon="3.42247">
        <ele>970.59</ele>
        <time>2013-01-06T14:14:53Z</time>
      </trkpt>
      <trkpt lat="44.2349" lon="3.42214">
        <ele>971.55</ele>
        <time>2013-01-06T14:15:12Z</time>
      </trkpt>
      <trkpt lat="44.23506" lon="3.4218">
        <ele>974.43</ele>
        <time>2013-01-06T14:15:33Z</time>
      </trkpt>
      <trkpt lat="44.23527" lon="3.42137">
        <ele>974.91</ele>
        <time>2013-01-06T14:15:57Z</time>
      </trkpt>
      <trkpt lat="44.23545" lon="3.42089">
        <ele>975.88</ele>
        <time>2013-01-06T14:16:21Z</time>
      </trkpt>
      <trkpt lat="44.23552" lon="3.42039">
        <ele>975.39</ele>
        <time>2013-01-06T14:16:43Z</time>
      </trkpt>
      <trkpt lat="44.23552" lon="3.42014">
        <ele>972.03</ele>
        <time>2013-01-06T14:16:54Z</time>
      </trkpt>
      <trkpt lat="44.23551" lon="3.41961">
        <ele>970.11</ele>
        <time>2013-01-06T14:17:18Z</time>
      </trkpt>
      <trkpt lat="44.23549" lon="3.41933">
        <ele>968.67</ele>
        <time>2013-01-06T14:17:38Z</time>
      </trkpt>
      <trkpt lat="44.23549" lon="3.41932">
        <ele>967.7</ele>
        <time>2013-01-06T14:18:04Z</time>
      </trkpt>
      <trkpt lat="44.23554" lon="3.41926">
        <ele>968.18</ele>
        <time>2013-01-06T14:18:20Z</time>
      </trkpt>
      <trkpt lat="44.23561" lon="3.41919">
        <ele>968.67</ele>
        <time>2013-01-06T14:18:38Z</time>
      </trkpt>
      <trkpt lat="44.23564" lon="3.41911">
        <ele>967.7</ele>
        <time>2013-01-06T14:18:58Z</time>
      </trkpt>
      <trkpt lat="44.23571" lon="3.41889">
        <ele>967.22</ele>
        <time>2013-01-06T14:19:14Z</time>
      </trkpt>
      <trkpt lat="44.23582" lon="3.41854">
        <ele>965.78</ele>
        <time>2013-01-06T14:19:38Z</time>
      </trkpt>
      <trkpt lat="44.23592" lon="3.41821">
        <ele>964.34</ele>
        <time>2013-01-06T14:19:59Z</time>
      </trkpt>
      <trkpt lat="44.23603" lon="3.4178">
        <ele>964.82</ele>
        <time>2013-01-06T14:20:21Z</time>
      </trkpt>
      <trkpt lat="44.23598" lon="3.41748">
        <ele>965.3</ele>
        <time>2013-01-06T14:20:39Z</time>
      </trkpt>
      <trkpt lat="44.23596" lon="3.41703">
        <ele>964.82</ele>
        <time>2013-01-06T14:21:02Z</time>
      </trkpt>
      <trkpt lat="44.23603" lon="3.41663">
        <ele>964.34</ele>
        <time>2013-01-06T14:21:23Z</time>
      </trkpt>
      <trkpt lat="44.23615" lon="3.41645">
        <ele>963.86</ele>
        <time>2013-01-06T14:21:41Z</time>
      </trkpt>
      <trkpt lat="44.23624" lon="3.41631">
        <ele>962.9</ele>
        <time>2013-01-06T14:21:57Z</time>
      </trkpt>
      <trkpt lat="44.2365" lon="3.41598">
        <ele>961.94</ele>
        <time>2013-01-06T14:22:24Z</time>
      </trkpt>
      <trkpt lat="44.2366" lon="3.41591">
        <ele>961.46</ele>
        <time>2013-01-06T14:22:37Z</time>
      </trkpt>
      <trkpt lat="44.23698" lon="3.41573">
        <ele>960.98</ele>
        <time>2013-01-06T14:23:03Z</time>
      </trkpt>
      <trkpt lat="44.23713" lon="3.4156">
        <ele>959.53</ele>
        <time>2013-01-06T14:23:25Z</time>
      </trkpt>
      <trkpt lat="44.23712" lon="3.41558">
        <ele>960.01</ele>
        <time>2013-01-06T14:23:27Z</time>
      </trkpt>
      <trkpt lat="44.23712" lon="3.41549">
        <ele>959.53</ele>
        <time>2013-01-06T14:23:34Z</time>
      </trkpt>
      <trkpt lat="44.23713" lon="3.41546">
        <ele>958.57</ele>
        <time>2013-01-06T14:23:36Z</time>
      </trkpt>
      <trkpt lat="44.23694" lon="3.41505">
        <ele>957.61</ele>
        <time>2013-01-06T14:23:59Z</time>
      </trkpt>
      <trkpt lat="44.23679" lon="3.41462">
        <ele>957.13</ele>
        <time>2013-01-06T14:24:23Z</time>
      </trkpt>
      <trkpt lat="44.23679" lon="3.41451">
        <ele>956.17</ele>
        <time>2013-01-06T14:24:30Z</time>
      </trkpt>
      <trkpt lat="44.23683" lon="3.41439">
        <ele>956.65</ele>
        <time>2013-01-06T14:24:46Z</time>
      </trkpt>
      <trkpt lat="44.23683" lon="3.41437">
        <ele>956.17</ele>
        <time>2013-01-06T14:24:52Z</time>
      </trkpt>
      <trkpt lat="44.2366" lon="3.41415">
        <ele>956.65</ele>
        <time>2013-01-06T14:25:12Z</time>
      </trkpt>
      <trkpt lat="44.23639" lon="3.41395">
        <ele>955.69</ele>
        <time>2013-01-06T14:25:31Z</time>
      </trkpt>
      <trkpt lat="44.23637" lon="3.4139">
        <ele>956.17</ele>
        <time>2013-01-06T14:25:41Z</time>
      </trkpt>
      <trkpt lat="44.23621" lon="3.41365">
        <ele>955.69</ele>
        <time>2013-01-06T14:25:58Z</time>
      </trkpt>
      <trkpt lat="44.23599" lon="3.41346">
        <ele>954.73</ele>
        <time>2013-01-06T14:26:17Z</time>
      </trkpt>
      <trkpt lat="44.23572" lon="3.41327">
        <ele>954.25</ele>
        <time>2013-01-06T14:26:39Z</time>
      </trkpt>
      <trkpt lat="44.23565" lon="3.41323">
        <ele>953.77</ele>
        <time>2013-01-06T14:26:57Z</time>
      </trkpt>
      <trkpt lat="44.23566" lon="3.41324">
        <ele>953.28</ele>
        <time>2013-01-06T14:27:27Z</time>
      </trkpt>
      <trkpt lat="44.23566" lon="3.41325">
        <ele>953.28</ele>
        <time>2013-01-06T14:27:57Z</time>
      </trkpt>
      <trkpt lat="44.23566" lon="3.41324">
        <ele>954.25</ele>
        <time>2013-01-06T14:28:21Z</time>
      </trkpt>
      <trkpt lat="44.23565" lon="3.41323">
        <ele>954.25</ele>
        <time>2013-01-06T14:28:42Z</time>
      </trkpt>
      <trkpt lat="44.23564" lon="3.41321">
        <ele>954.25</ele>
        <time>2013-01-06T14:29:10Z</time>
      </trkpt>
      <trkpt lat="44.23564" lon="3.41321">
        <ele>954.25</ele>
        <time>2013-01-06T14:29:31Z</time>
      </trkpt>
      <trkpt lat="44.23563" lon="3.4132">
        <ele>953.77</ele>
        <time>2013-01-06T14:29:58Z</time>
      </trkpt>
      <trkpt lat="44.23565" lon="3.41321">
        <ele>954.25</ele>
        <time>2013-01-06T14:30:22Z</time>
      </trkpt>
      <trkpt lat="44.23569" lon="3.41311">
        <ele>954.25</ele>
        <time>2013-01-06T14:30:39Z</time>
      </trkpt>
      <trkpt lat="44.23574" lon="3.41303">
        <ele>954.73</ele>
        <time>2013-01-06T14:30:54Z</time>
      </trkpt>
      <trkpt lat="44.23577" lon="3.41304">
        <ele>954.25</ele>
        <time>2013-01-06T14:31:09Z</time>
      </trkpt>
      <trkpt lat="44.23582" lon="3.41299">
        <ele>954.73</ele>
        <time>2013-01-06T14:31:25Z</time>
      </trkpt>
      <trkpt lat="44.23595" lon="3.41277">
        <ele>955.21</ele>
        <time>2013-01-06T14:31:44Z</time>
      </trkpt>
      <trkpt lat="44.23608" lon="3.41264">
        <ele>955.21</ele>
        <time>2013-01-06T14:32:02Z</time>
      </trkpt>
      <trkpt lat="44.23616" lon="3.41254">
        <ele>955.21</ele>
        <time>2013-01-06T14:32:18Z</time>
      </trkpt>
      <trkpt lat="44.2363" lon="3.41238">
        <ele>955.21</ele>
        <time>2013-01-06T14:32:30Z</time>
      </trkpt>
      <trkpt lat="44.23646" lon="3.41215">
        <ele>953.77</ele>
        <time>2013-01-06T14:32:46Z</time>
      </trkpt>
      <trkpt lat="44.23666" lon="3.41185">
        <ele>955.69</ele>
        <time>2013-01-06T14:33:07Z</time>
      </trkpt>
      <trkpt lat="44.23686" lon="3.41167">
        <ele>958.57</ele>
        <time>2013-01-06T14:33:25Z</time>
      </trkpt>
      <trkpt lat="44.23702" lon="3.41152">
        <ele>960.01</ele>
        <time>2013-01-06T14:33:41Z</time>
      </trkpt>
      <trkpt lat="44.2373" lon="3.41132">
        <ele>962.42</ele>
        <time>2013-01-06T14:34:03Z</time>
      </trkpt>
      <trkpt lat="44.23752" lon="3.41123">
        <ele>964.82</ele>
        <time>2013-01-06T14:34:21Z</time>
      </trkpt>
      <trkpt lat="44.23774" lon="3.41119">
        <ele>965.78</ele>
        <time>2013-01-06T14:34:37Z</time>
      </trkpt>
      <trkpt lat="44.238" lon="3.41107">
        <ele>968.18</ele>
        <time>2013-01-06T14:34:58Z</time>
      </trkpt>
      <trkpt lat="44.23823" lon="3.41094">
        <ele>970.59</ele>
        <time>2013-01-06T14:35:17Z</time>
      </trkpt>
      <trkpt lat="44.23846" lon="3.41082">
        <ele>972.51</ele>
        <time>2013-01-06T14:35:36Z</time>
      </trkpt>
      <trkpt lat="44.23871" lon="3.41071">
        <ele>974.43</ele>
        <time>2013-01-06T14:35:55Z</time>
      </trkpt>
      <trkpt lat="44.2388" lon="3.41069">
        <ele>975.39</ele>
        <time>2013-01-06T14:36:03Z</time>
      </trkpt>
      <trkpt lat="44.23893" lon="3.41067">
        <ele>976.84</ele>
        <time>2013-01-06T14:36:17Z</time>
      </trkpt>
      <trkpt lat="44.23903" lon="3.41064">
        <ele>977.8</ele>
        <time>2013-01-06T14:36:31Z</time>
      </trkpt>
      <trkpt lat="44.23907" lon="3.4106">
        <ele>977.8</ele>
        <time>2013-01-06T14:36:42Z</time>
      </trkpt>
      <trkpt lat="44.23921" lon="3.41044">
        <ele>980.68</ele>
        <time>2013-01-06T14:36:58Z</time>
      </trkpt>
      <trkpt lat="44.23932" lon="3.41028">
        <ele>982.12</ele>
        <time>2013-01-06T14:37:13Z</time>
      </trkpt>
      <trkpt lat="44.23949" lon="3.41003">
        <ele>984.05</ele>
        <time>2013-01-06T14:37:32Z</time>
      </trkpt>
      <trkpt lat="44.23966" lon="3.40983">
        <ele>987.41</ele>
        <time>2013-01-06T14:37:51Z</time>
      </trkpt>
      <trkpt lat="44.23982" lon="3.40957">
        <ele>988.85</ele>
        <time>2013-01-06T14:38:11Z</time>
      </trkpt>
      <trkpt lat="44.24006" lon="3.40942">
        <ele>991.74</ele>
        <time>2013-01-06T14:38:32Z</time>
      </trkpt>
      <trkpt lat="44.24027" lon="3.40922">
        <ele>995.1</ele>
        <time>2013-01-06T14:38:51Z</time>
      </trkpt>
      <trkpt lat="44.24045" lon="3.40909">
        <ele>997.99</ele>
        <time>2013-01-06T14:39:06Z</time>
      </trkpt>
      <trkpt lat="44.24067" lon="3.40889">
        <ele>1000.87</ele>
        <time>2013-01-06T14:39:24Z</time>
      </trkpt>
      <trkpt lat="44.24083" lon="3.40869">
        <ele>1004.23</ele>
        <time>2013-01-06T14:39:40Z</time>
      </trkpt>
      <trkpt lat="44.24103" lon="3.40858">
        <ele>1007.6</ele>
        <time>2013-01-06T14:39:54Z</time>
      </trkpt>
      <trkpt lat="44.24117" lon="3.40843">
        <ele>1010.48</ele>
        <time>2013-01-06T14:40:09Z</time>
      </trkpt>
      <trkpt lat="44.24134" lon="3.40831">
        <ele>1013.85</ele>
        <time>2013-01-06T14:40:21Z</time>
      </trkpt>
      <trkpt lat="44.24149" lon="3.40811">
        <ele>1017.21</ele>
        <time>2013-01-06T14:40:36Z</time>
      </trkpt>
      <trkpt lat="44.24163" lon="3.40797">
        <ele>1020.1</ele>
        <time>2013-01-06T14:40:48Z</time>
      </trkpt>
      <trkpt lat="44.24182" lon="3.40775">
        <ele>1021.54</ele>
        <time>2013-01-06T14:41:06Z</time>
      </trkpt>
      <trkpt lat="44.24199" lon="3.4075">
        <ele>1024.42</ele>
        <time>2013-01-06T14:41:22Z</time>
      </trkpt>
      <trkpt lat="44.2422" lon="3.40721">
        <ele>1025.38</ele>
        <time>2013-01-06T14:41:41Z</time>
      </trkpt>
      <trkpt lat="44.24237" lon="3.40695">
        <ele>1025.38</ele>
        <time>2013-01-06T14:41:59Z</time>
      </trkpt>
      <trkpt lat="44.24236" lon="3.40652">
        <ele>1024.42</ele>
        <time>2013-01-06T14:42:23Z</time>
      </trkpt>
      <trkpt lat="44.24238" lon="3.40651">
        <ele>1024.42</ele>
        <time>2013-01-06T14:42:58Z</time>
      </trkpt>
      <trkpt lat="44.2424" lon="3.40659">
        <ele>1023.94</ele>
        <time>2013-01-06T14:43:06Z</time>
      </trkpt>
      <trkpt lat="44.24244" lon="3.40688">
        <ele>1024.42</ele>
        <time>2013-01-06T14:43:28Z</time>
      </trkpt>
      <trkpt lat="44.24248" lon="3.40695">
        <ele>1024.42</ele>
        <time>2013-01-06T14:43:44Z</time>
      </trkpt>
      <trkpt lat="44.24251" lon="3.40697">
        <ele>1023.94</ele>
        <time>2013-01-06T14:44:18Z</time>
      </trkpt>
      <trkpt lat="44.2425" lon="3.40698">
        <ele>1024.42</ele>
        <time>2013-01-06T14:44:45Z</time>
      </trkpt>
      <trkpt lat="44.24251" lon="3.40697">
        <ele>1024.42</ele>
        <time>2013-01-06T14:45:12Z</time>
      </trkpt>
      <trkpt lat="44.24254" lon="3.40697">
        <ele>1024.42</ele>
        <time>2013-01-06T14:45:38Z</time>
      </trkpt>
      <trkpt lat="44.24256" lon="3.40697">
        <ele>1024.9</ele>
        <time>2013-01-06T14:46:05Z</time>
      </trkpt>
      <trkpt lat="44.24257" lon="3.40698">
        <ele>1024.9</ele>
        <time>2013-01-06T14:46:30Z</time>
      </trkpt>
      <trkpt lat="44.24256" lon="3.40698">
        <ele>1025.38</ele>
        <time>2013-01-06T14:46:50Z</time>
      </trkpt>
      <trkpt lat="44.24256" lon="3.40697">
        <ele>1024.9</ele>
        <time>2013-01-06T14:47:18Z</time>
      </trkpt>
      <trkpt lat="44.24256" lon="3.40696">
        <ele>1025.38</ele>
        <time>2013-01-06T14:47:40Z</time>
      </trkpt>
      <trkpt lat="44.24256" lon="3.40695">
        <ele>1025.38</ele>
        <time>2013-01-06T14:48:07Z</time>
      </trkpt>
      <trkpt lat="44.24262" lon="3.40692">
        <ele>1023.46</ele>
        <time>2013-01-06T14:48:24Z</time>
      </trkpt>
      <trkpt lat="44.24264" lon="3.40692">
        <ele>1023.94</ele>
        <time>2013-01-06T14:48:26Z</time>
      </trkpt>
      <trkpt lat="44.24285" lon="3.40679">
        <ele>1021.06</ele>
        <time>2013-01-06T14:48:46Z</time>
      </trkpt>
      <trkpt lat="44.24307" lon="3.4067">
        <ele>1017.21</ele>
        <time>2013-01-06T14:49:03Z</time>
      </trkpt>
      <trkpt lat="44.2432" lon="3.40662">
        <ele>1015.77</ele>
        <time>2013-01-06T14:49:14Z</time>
      </trkpt>
      <trkpt lat="44.24333" lon="3.40655">
        <ele>1012.89</ele>
        <time>2013-01-06T14:49:25Z</time>
      </trkpt>
      <trkpt lat="44.24346" lon="3.40647">
        <ele>1009.52</ele>
        <time>2013-01-06T14:49:38Z</time>
      </trkpt>
      <trkpt lat="44.2436" lon="3.40639">
        <ele>1006.64</ele>
        <time>2013-01-06T14:49:50Z</time>
      </trkpt>
      <trkpt lat="44.24361" lon="3.40639">
        <ele>1006.64</ele>
        <time>2013-01-06T14:49:51Z</time>
      </trkpt>
      <trkpt lat="44.24386" lon="3.40625">
        <ele>1004.23</ele>
        <time>2013-01-06T14:50:08Z</time>
      </trkpt>
      <trkpt lat="44.24408" lon="3.40614">
        <ele>1000.87</ele>
        <time>2013-01-06T14:50:27Z</time>
      </trkpt>
      <trkpt lat="44.2443" lon="3.40605">
        <ele>998.95</ele>
        <time>2013-01-06T14:50:49Z</time>
      </trkpt>
      <trkpt lat="44.24455" lon="3.406">
        <ele>995.58</ele>
        <time>2013-01-06T14:51:09Z</time>
      </trkpt>
      <trkpt lat="44.24483" lon="3.40594">
        <ele>995.1</ele>
        <time>2013-01-06T14:51:30Z</time>
      </trkpt>
      <trkpt lat="44.24509" lon="3.40584">
        <ele>994.62</ele>
        <time>2013-01-06T14:51:51Z</time>
      </trkpt>
      <trkpt lat="44.24541" lon="3.40577">
        <ele>996.06</ele>
        <time>2013-01-06T14:52:19Z</time>
      </trkpt>
      <trkpt lat="44.24567" lon="3.40556">
        <ele>997.02</ele>
        <time>2013-01-06T14:52:43Z</time>
      </trkpt>
      <trkpt lat="44.24574" lon="3.40546">
        <ele>998.47</ele>
        <time>2013-01-06T14:52:51Z</time>
      </trkpt>
      <trkpt lat="44.24592" lon="3.40523">
        <ele>998.47</ele>
        <time>2013-01-06T14:53:11Z</time>
      </trkpt>
      <trkpt lat="44.24614" lon="3.40508">
        <ele>1001.35</ele>
        <time>2013-01-06T14:53:33Z</time>
      </trkpt>
      <trkpt lat="44.24642" lon="3.405">
        <ele>1003.75</ele>
        <time>2013-01-06T14:53:56Z</time>
      </trkpt>
      <trkpt lat="44.24657" lon="3.40497">
        <ele>1004.23</ele>
        <time>2013-01-06T14:54:07Z</time>
      </trkpt>
      <trkpt lat="44.24661" lon="3.40495">
        <ele>1005.68</ele>
        <time>2013-01-06T14:54:10Z</time>
      </trkpt>
      <trkpt lat="44.24687" lon="3.40472">
        <ele>1006.16</ele>
        <time>2013-01-06T14:54:33Z</time>
      </trkpt>
      <trkpt lat="44.24709" lon="3.40453">
        <ele>1005.2</ele>
        <time>2013-01-06T14:54:54Z</time>
      </trkpt>
      <trkpt lat="44.24741" lon="3.4044">
        <ele>1006.64</ele>
        <time>2013-01-06T14:55:17Z</time>
      </trkpt>
      <trkpt lat="44.24772" lon="3.40418">
        <ele>1006.16</ele>
        <time>2013-01-06T14:55:42Z</time>
      </trkpt>
      <trkpt lat="44.24806" lon="3.40396">
        <ele>1006.16</ele>
        <time>2013-01-06T14:56:07Z</time>
      </trkpt>
      <trkpt lat="44.24835" lon="3.40373">
        <ele>1007.6</ele>
        <time>2013-01-06T14:56:31Z</time>
      </trkpt>
      <trkpt lat="44.24845" lon="3.40358">
        <ele>1009.52</ele>
        <time>2013-01-06T14:56:43Z</time>
      </trkpt>
      <trkpt lat="44.24866" lon="3.40334">
        <ele>1011.93</ele>
        <time>2013-01-06T14:57:05Z</time>
      </trkpt>
      <trkpt lat="44.24882" lon="3.40294">
        <ele>1013.85</ele>
        <time>2013-01-06T14:57:30Z</time>
      </trkpt>
      <trkpt lat="44.24906" lon="3.40256">
        <ele>1014.81</ele>
        <time>2013-01-06T14:57:58Z</time>
      </trkpt>
      <trkpt lat="44.24927" lon="3.40237">
        <ele>1016.25</ele>
        <time>2013-01-06T14:58:20Z</time>
      </trkpt>
      <trkpt lat="44.24946" lon="3.40224">
        <ele>1017.69</ele>
        <time>2013-01-06T14:58:38Z</time>
      </trkpt>
      <trkpt lat="44.24973" lon="3.40205">
        <ele>1019.62</ele>
        <time>2013-01-06T14:59:02Z</time>
      </trkpt>
      <trkpt lat="44.25008" lon="3.40182">
        <ele>1020.58</ele>
        <time>2013-01-06T14:59:28Z</time>
      </trkpt>
      <trkpt lat="44.25028" lon="3.40149">
        <ele>1020.1</ele>
        <time>2013-01-06T14:59:50Z</time>
      </trkpt>
      <trkpt lat="44.25028" lon="3.40118">
        <ele>1018.17</ele>
        <time>2013-01-06T15:00:06Z</time>
      </trkpt>
      <trkpt lat="44.25021" lon="3.40086">
        <ele>1017.69</ele>
        <time>2013-01-06T15:00:27Z</time>
      </trkpt>
      <trkpt lat="44.25014" lon="3.4004">
        <ele>1016.25</ele>
        <time>2013-01-06T15:00:54Z</time>
      </trkpt>
      <trkpt lat="44.25008" lon="3.40007">
        <ele>1016.25</ele>
        <time>2013-01-06T15:01:13Z</time>
      </trkpt>
      <trkpt lat="44.24997" lon="3.39975">
        <ele>1016.25</ele>
        <time>2013-01-06T15:01:38Z</time>
      </trkpt>
      <trkpt lat="44.24985" lon="3.39949">
        <ele>1016.25</ele>
        <time>2013-01-06T15:01:59Z</time>
      </trkpt>
      <trkpt lat="44.2498" lon="3.39939">
        <ele>1017.69</ele>
        <time>2013-01-06T15:02:17Z</time>
      </trkpt>
      <trkpt lat="44.24979" lon="3.3994">
        <ele>1018.17</ele>
        <time>2013-01-06T15:02:33Z</time>
      </trkpt>
      <trkpt lat="44.24979" lon="3.39936">
        <ele>1017.21</ele>
        <time>2013-01-06T15:02:47Z</time>
      </trkpt>
      <trkpt lat="44.2498" lon="3.39936">
        <ele>1017.69</ele>
        <time>2013-01-06T15:03:07Z</time>
      </trkpt>
      <trkpt lat="44.24981" lon="3.39939">
        <ele>1017.21</ele>
        <time>2013-01-06T15:03:22Z</time>
      </trkpt>
      <trkpt lat="44.24979" lon="3.39939">
        <ele>1018.17</ele>
        <time>2013-01-06T15:03:48Z</time>
      </trkpt>
      <trkpt lat="44.24979" lon="3.3994">
        <ele>1017.69</ele>
        <time>2013-01-06T15:04:13Z</time>
      </trkpt>
      <trkpt lat="44.24977" lon="3.39938">
        <ele>1018.17</ele>
        <time>2013-01-06T15:04:49Z</time>
      </trkpt>
      <trkpt lat="44.24977" lon="3.39939">
        <ele>1018.17</ele>
        <time>2013-01-06T15:05:17Z</time>
      </trkpt>
      <trkpt lat="44.2498" lon="3.39938">
        <ele>1017.69</ele>
        <time>2013-01-06T15:05:45Z</time>
      </trkpt>
      <trkpt lat="44.24979" lon="3.39938">
        <ele>1017.21</ele>
        <time>2013-01-06T15:06:05Z</time>
      </trkpt>
      <trkpt lat="44.24979" lon="3.39937">
        <ele>1017.21</ele>
        <time>2013-01-06T15:06:28Z</time>
      </trkpt>
      <trkpt lat="44.24978" lon="3.39939">
        <ele>1017.69</ele>
        <time>2013-01-06T15:06:47Z</time>
      </trkpt>
      <trkpt lat="44.24978" lon="3.39939">
        <ele>1017.21</ele>
        <time>2013-01-06T15:07:11Z</time>
      </trkpt>
      <trkpt lat="44.24978" lon="3.39939">
        <ele>1017.69</ele>
        <time>2013-01-06T15:07:37Z</time>
      </trkpt>
      <trkpt lat="44.24978" lon="3.39939">
        <ele>1017.69</ele>
        <time>2013-01-06T15:08:02Z</time>
      </trkpt>
      <trkpt lat="44.24977" lon="3.39938">
        <ele>1017.69</ele>
        <time>2013-01-06T15:08:27Z</time>
      </trkpt>
      <trkpt lat="44.24978" lon="3.39936">
        <ele>1017.69</ele>
        <time>2013-01-06T15:08:54Z</time>
      </trkpt>
    </trkseg>
  </trk>
</gpx>